<?xml version="1.0" encoding="UTF-8" standalone="no" ?>
<gpx xmlns="http://www.topografix.com/GPX/1/1" xmlns:xsi="http://www.w3.org/2001/XMLSchema-instance" xsi:schemaLocation="http://www.topografix.com/GPX/1/1 http://www.topografix.com/GPX/1/1/gpx.xsd" version="1.1" creator="VisuGPX - https://www.visugpx.com">
  <metadata>
    <name>Randonnée vélo champêtre mi route mi chemin</name>
    <desc><![CDATA[Parcours majoritairement le long des chemins de halage de l'Escaut. petit secteur pavés, retour sur route.]]></desc>
  </metadata>
  <trk>
    <name><![CDATA[Sequence 1]]></name>
    <trkseg>
      <trkpt lat="50.31708" lon="3.42464">
        <ele>-21</ele>
        <time>2016-02-28T08:57:59Z</time>
      </trkpt>
      <trkpt lat="50.31708" lon="3.42458">
        <ele>-26</ele>
        <time>2016-02-28T08:58:05Z</time>
      </trkpt>
      <trkpt lat="50.31706" lon="3.42459">
        <ele>-25</ele>
        <time>2016-02-28T08:58:10Z</time>
      </trkpt>
      <trkpt lat="50.31706" lon="3.42459">
        <ele>-26</ele>
        <time>2016-02-28T08:58:12Z</time>
      </trkpt>
      <trkpt lat="50.31704" lon="3.42457">
        <ele>-28</ele>
        <time>2016-02-28T08:58:19Z</time>
      </trkpt>
      <trkpt lat="50.31704" lon="3.42457">
        <ele>-28</ele>
        <time>2016-02-28T08:58:25Z</time>
      </trkpt>
      <trkpt lat="50.31704" lon="3.42456">
        <ele>-27</ele>
        <time>2016-02-28T08:58:34Z</time>
      </trkpt>
      <trkpt lat="50.31704" lon="3.42456">
        <ele>-27</ele>
        <time>2016-02-28T08:58:39Z</time>
      </trkpt>
      <trkpt lat="50.31704" lon="3.42456">
        <ele>-27</ele>
        <time>2016-02-28T08:58:42Z</time>
      </trkpt>
      <trkpt lat="50.3171" lon="3.42458">
        <ele>-27</ele>
        <time>2016-02-28T08:58:48Z</time>
      </trkpt>
      <trkpt lat="50.31717" lon="3.42437">
        <ele>-27</ele>
        <time>2016-02-28T08:58:54Z</time>
      </trkpt>
      <trkpt lat="50.31728" lon="3.42416">
        <ele>-22</ele>
        <time>2016-02-28T08:59:00Z</time>
      </trkpt>
      <trkpt lat="50.31739" lon="3.42395">
        <ele>-18</ele>
        <time>2016-02-28T08:59:06Z</time>
      </trkpt>
      <trkpt lat="50.31759" lon="3.42354">
        <ele>-2</ele>
        <time>2016-02-28T08:59:17Z</time>
      </trkpt>
      <trkpt lat="50.31771" lon="3.42338">
        <ele>43</ele>
        <time>2016-02-28T08:59:22Z</time>
      </trkpt>
      <trkpt lat="50.31783" lon="3.42309">
        <ele>43</ele>
        <time>2016-02-28T08:59:28Z</time>
      </trkpt>
      <trkpt lat="50.31792" lon="3.42278">
        <ele>5</ele>
        <time>2016-02-28T08:59:35Z</time>
      </trkpt>
      <trkpt lat="50.31795" lon="3.42274">
        <ele>6</ele>
        <time>2016-02-28T08:59:36Z</time>
      </trkpt>
      <trkpt lat="50.31826" lon="3.42232">
        <ele>1</ele>
        <time>2016-02-28T08:59:47Z</time>
      </trkpt>
      <trkpt lat="50.31828" lon="3.42225">
        <ele>3</ele>
        <time>2016-02-28T08:59:48Z</time>
      </trkpt>
      <trkpt lat="50.31857" lon="3.42159">
        <ele>11</ele>
        <time>2016-02-28T08:59:59Z</time>
      </trkpt>
      <trkpt lat="50.3186" lon="3.42154">
        <ele>11</ele>
        <time>2016-02-28T09:00:00Z</time>
      </trkpt>
      <trkpt lat="50.31874" lon="3.42125">
        <ele>9</ele>
        <time>2016-02-28T09:00:06Z</time>
      </trkpt>
      <trkpt lat="50.31886" lon="3.42102">
        <ele>11</ele>
        <time>2016-02-28T09:00:13Z</time>
      </trkpt>
      <trkpt lat="50.3189" lon="3.42085">
        <ele>13</ele>
        <time>2016-02-28T09:00:21Z</time>
      </trkpt>
      <trkpt lat="50.31892" lon="3.42078">
        <ele>12</ele>
        <time>2016-02-28T09:00:24Z</time>
      </trkpt>
      <trkpt lat="50.31912" lon="3.41982">
        <ele>24</ele>
        <time>2016-02-28T09:00:51Z</time>
      </trkpt>
      <trkpt lat="50.31921" lon="3.41986">
        <ele>19</ele>
        <time>2016-02-28T09:00:55Z</time>
      </trkpt>
      <trkpt lat="50.31928" lon="3.41981">
        <ele>16</ele>
        <time>2016-02-28T09:00:58Z</time>
      </trkpt>
      <trkpt lat="50.31942" lon="3.41957">
        <ele>15</ele>
        <time>2016-02-28T09:01:04Z</time>
      </trkpt>
      <trkpt lat="50.31957" lon="3.41927">
        <ele>11</ele>
        <time>2016-02-28T09:01:11Z</time>
      </trkpt>
      <trkpt lat="50.31968" lon="3.41903">
        <ele>10</ele>
        <time>2016-02-28T09:01:16Z</time>
      </trkpt>
      <trkpt lat="50.31989" lon="3.41835">
        <ele>4</ele>
        <time>2016-02-28T09:01:27Z</time>
      </trkpt>
      <trkpt lat="50.31996" lon="3.4182">
        <ele>2</ele>
        <time>2016-02-28T09:01:30Z</time>
      </trkpt>
      <trkpt lat="50.32006" lon="3.41788">
        <ele>2</ele>
        <time>2016-02-28T09:01:35Z</time>
      </trkpt>
      <trkpt lat="50.3202" lon="3.41757">
        <ele>7</ele>
        <time>2016-02-28T09:01:40Z</time>
      </trkpt>
      <trkpt lat="50.32033" lon="3.41722">
        <ele>4</ele>
        <time>2016-02-28T09:01:46Z</time>
      </trkpt>
      <trkpt lat="50.32054" lon="3.41662">
        <ele>2</ele>
        <time>2016-02-28T09:01:56Z</time>
      </trkpt>
      <trkpt lat="50.32056" lon="3.41651">
        <ele>37</ele>
        <time>2016-02-28T09:01:58Z</time>
      </trkpt>
      <trkpt lat="50.32064" lon="3.41606">
        <ele>2</ele>
        <time>2016-02-28T09:02:04Z</time>
      </trkpt>
      <trkpt lat="50.32068" lon="3.41562">
        <ele>3</ele>
        <time>2016-02-28T09:02:10Z</time>
      </trkpt>
      <trkpt lat="50.32069" lon="3.41473">
        <ele>6</ele>
        <time>2016-02-28T09:02:21Z</time>
      </trkpt>
      <trkpt lat="50.3207" lon="3.41422">
        <ele>10</ele>
        <time>2016-02-28T09:02:27Z</time>
      </trkpt>
      <trkpt lat="50.3207" lon="3.41414">
        <ele>11</ele>
        <time>2016-02-28T09:02:28Z</time>
      </trkpt>
      <trkpt lat="50.32073" lon="3.41324">
        <ele>14</ele>
        <time>2016-02-28T09:02:39Z</time>
      </trkpt>
      <trkpt lat="50.32074" lon="3.41309">
        <ele>14</ele>
        <time>2016-02-28T09:02:41Z</time>
      </trkpt>
      <trkpt lat="50.32078" lon="3.41274">
        <ele>14</ele>
        <time>2016-02-28T09:02:46Z</time>
      </trkpt>
      <trkpt lat="50.32086" lon="3.41234">
        <ele>15</ele>
        <time>2016-02-28T09:02:52Z</time>
      </trkpt>
      <trkpt lat="50.32098" lon="3.41169">
        <ele>15</ele>
        <time>2016-02-28T09:03:01Z</time>
      </trkpt>
      <trkpt lat="50.32102" lon="3.41145">
        <ele>15</ele>
        <time>2016-02-28T09:03:04Z</time>
      </trkpt>
      <trkpt lat="50.32115" lon="3.41085">
        <ele>14</ele>
        <time>2016-02-28T09:03:12Z</time>
      </trkpt>
      <trkpt lat="50.32124" lon="3.41041">
        <ele>13</ele>
        <time>2016-02-28T09:03:17Z</time>
      </trkpt>
      <trkpt lat="50.32135" lon="3.41002">
        <ele>13</ele>
        <time>2016-02-28T09:03:22Z</time>
      </trkpt>
      <trkpt lat="50.32142" lon="3.40967">
        <ele>11</ele>
        <time>2016-02-28T09:03:28Z</time>
      </trkpt>
      <trkpt lat="50.32153" lon="3.40961">
        <ele>10</ele>
        <time>2016-02-28T09:03:34Z</time>
      </trkpt>
      <trkpt lat="50.3219" lon="3.40971">
        <ele>7</ele>
        <time>2016-02-28T09:03:42Z</time>
      </trkpt>
      <trkpt lat="50.32216" lon="3.40981">
        <ele>4</ele>
        <time>2016-02-28T09:03:48Z</time>
      </trkpt>
      <trkpt lat="50.32233" lon="3.40984">
        <ele>27.8</ele>
        <time>2016-02-28T09:03:53Z</time>
      </trkpt>
      <trkpt lat="50.32246" lon="3.41023">
        <ele>-2</ele>
        <time>2016-02-28T09:04:01Z</time>
      </trkpt>
      <trkpt lat="50.32257" lon="3.4107">
        <ele>-3</ele>
        <time>2016-02-28T09:04:09Z</time>
      </trkpt>
      <trkpt lat="50.32258" lon="3.41076">
        <ele>-4</ele>
        <time>2016-02-28T09:04:10Z</time>
      </trkpt>
      <trkpt lat="50.32263" lon="3.41111">
        <ele>-6</ele>
        <time>2016-02-28T09:04:16Z</time>
      </trkpt>
      <trkpt lat="50.32266" lon="3.41153">
        <ele>-9</ele>
        <time>2016-02-28T09:04:22Z</time>
      </trkpt>
      <trkpt lat="50.32266" lon="3.41198">
        <ele>-11</ele>
        <time>2016-02-28T09:04:30Z</time>
      </trkpt>
      <trkpt lat="50.32263" lon="3.41235">
        <ele>-12</ele>
        <time>2016-02-28T09:04:38Z</time>
      </trkpt>
      <trkpt lat="50.32262" lon="3.41243">
        <ele>-13</ele>
        <time>2016-02-28T09:04:40Z</time>
      </trkpt>
      <trkpt lat="50.32257" lon="3.41292">
        <ele>-9</ele>
        <time>2016-02-28T09:04:50Z</time>
      </trkpt>
      <trkpt lat="50.3226" lon="3.41333">
        <ele>-2</ele>
        <time>2016-02-28T09:04:57Z</time>
      </trkpt>
      <trkpt lat="50.32255" lon="3.41367">
        <ele>28</ele>
        <time>2016-02-28T09:05:03Z</time>
      </trkpt>
      <trkpt lat="50.32256" lon="3.41375">
        <ele>1</ele>
        <time>2016-02-28T09:05:04Z</time>
      </trkpt>
      <trkpt lat="50.32256" lon="3.41413">
        <ele>5</ele>
        <time>2016-02-28T09:05:10Z</time>
      </trkpt>
      <trkpt lat="50.32258" lon="3.4148">
        <ele>11</ele>
        <time>2016-02-28T09:05:19Z</time>
      </trkpt>
      <trkpt lat="50.32256" lon="3.41509">
        <ele>10</ele>
        <time>2016-02-28T09:05:23Z</time>
      </trkpt>
      <trkpt lat="50.32258" lon="3.41542">
        <ele>10</ele>
        <time>2016-02-28T09:05:28Z</time>
      </trkpt>
      <trkpt lat="50.32259" lon="3.41581">
        <ele>9</ele>
        <time>2016-02-28T09:05:34Z</time>
      </trkpt>
      <trkpt lat="50.32262" lon="3.4164">
        <ele>8</ele>
        <time>2016-02-28T09:05:43Z</time>
      </trkpt>
      <trkpt lat="50.32264" lon="3.41683">
        <ele>8</ele>
        <time>2016-02-28T09:05:49Z</time>
      </trkpt>
      <trkpt lat="50.32267" lon="3.41732">
        <ele>10</ele>
        <time>2016-02-28T09:05:56Z</time>
      </trkpt>
      <trkpt lat="50.32269" lon="3.41745">
        <ele>10</ele>
        <time>2016-02-28T09:05:58Z</time>
      </trkpt>
      <trkpt lat="50.32271" lon="3.41781">
        <ele>10</ele>
        <time>2016-02-28T09:06:04Z</time>
      </trkpt>
      <trkpt lat="50.32272" lon="3.41818">
        <ele>10</ele>
        <time>2016-02-28T09:06:10Z</time>
      </trkpt>
      <trkpt lat="50.32276" lon="3.41864">
        <ele>11</ele>
        <time>2016-02-28T09:06:16Z</time>
      </trkpt>
      <trkpt lat="50.32277" lon="3.41908">
        <ele>11</ele>
        <time>2016-02-28T09:06:22Z</time>
      </trkpt>
      <trkpt lat="50.32277" lon="3.41952">
        <ele>9</ele>
        <time>2016-02-28T09:06:29Z</time>
      </trkpt>
      <trkpt lat="50.3228" lon="3.41985">
        <ele>10</ele>
        <time>2016-02-28T09:06:34Z</time>
      </trkpt>
      <trkpt lat="50.32286" lon="3.42053">
        <ele>12</ele>
        <time>2016-02-28T09:06:43Z</time>
      </trkpt>
      <trkpt lat="50.32289" lon="3.42107">
        <ele>13</ele>
        <time>2016-02-28T09:06:51Z</time>
      </trkpt>
      <trkpt lat="50.32288" lon="3.42113">
        <ele>11</ele>
        <time>2016-02-28T09:06:52Z</time>
      </trkpt>
      <trkpt lat="50.32289" lon="3.42153">
        <ele>10</ele>
        <time>2016-02-28T09:06:58Z</time>
      </trkpt>
      <trkpt lat="50.32296" lon="3.42225">
        <ele>12</ele>
        <time>2016-02-28T09:07:08Z</time>
      </trkpt>
      <trkpt lat="50.32298" lon="3.42239">
        <ele>13</ele>
        <time>2016-02-28T09:07:10Z</time>
      </trkpt>
      <trkpt lat="50.32302" lon="3.42287">
        <ele>14</ele>
        <time>2016-02-28T09:07:17Z</time>
      </trkpt>
      <trkpt lat="50.3231" lon="3.4234">
        <ele>18</ele>
        <time>2016-02-28T09:07:25Z</time>
      </trkpt>
      <trkpt lat="50.3231" lon="3.42366">
        <ele>18</ele>
        <time>2016-02-28T09:07:29Z</time>
      </trkpt>
      <trkpt lat="50.32315" lon="3.4241">
        <ele>19</ele>
        <time>2016-02-28T09:07:36Z</time>
      </trkpt>
      <trkpt lat="50.32318" lon="3.42452">
        <ele>20</ele>
        <time>2016-02-28T09:07:42Z</time>
      </trkpt>
      <trkpt lat="50.3232" lon="3.42479">
        <ele>20</ele>
        <time>2016-02-28T09:07:46Z</time>
      </trkpt>
      <trkpt lat="50.32325" lon="3.42515">
        <ele>20</ele>
        <time>2016-02-28T09:07:52Z</time>
      </trkpt>
      <trkpt lat="50.32329" lon="3.42555">
        <ele>21</ele>
        <time>2016-02-28T09:07:58Z</time>
      </trkpt>
      <trkpt lat="50.32346" lon="3.42589">
        <ele>25</ele>
        <time>2016-02-28T09:08:04Z</time>
      </trkpt>
      <trkpt lat="50.32354" lon="3.42646">
        <ele>24</ele>
        <time>2016-02-28T09:08:15Z</time>
      </trkpt>
      <trkpt lat="50.32351" lon="3.42651">
        <ele>23</ele>
        <time>2016-02-28T09:08:16Z</time>
      </trkpt>
      <trkpt lat="50.32333" lon="3.42694">
        <ele>19</ele>
        <time>2016-02-28T09:08:24Z</time>
      </trkpt>
      <trkpt lat="50.32332" lon="3.42721">
        <ele>20</ele>
        <time>2016-02-28T09:08:28Z</time>
      </trkpt>
      <trkpt lat="50.32328" lon="3.42757">
        <ele>18</ele>
        <time>2016-02-28T09:08:34Z</time>
      </trkpt>
      <trkpt lat="50.32329" lon="3.42799">
        <ele>21</ele>
        <time>2016-02-28T09:08:40Z</time>
      </trkpt>
      <trkpt lat="50.3233" lon="3.42842">
        <ele>21</ele>
        <time>2016-02-28T09:08:47Z</time>
      </trkpt>
      <trkpt lat="50.3233" lon="3.42875">
        <ele>21</ele>
        <time>2016-02-28T09:08:52Z</time>
      </trkpt>
      <trkpt lat="50.32329" lon="3.42912">
        <ele>21</ele>
        <time>2016-02-28T09:08:59Z</time>
      </trkpt>
      <trkpt lat="50.32319" lon="3.42968">
        <ele>21</ele>
        <time>2016-02-28T09:09:08Z</time>
      </trkpt>
      <trkpt lat="50.32307" lon="3.42981">
        <ele>20</ele>
        <time>2016-02-28T09:09:12Z</time>
      </trkpt>
      <trkpt lat="50.32293" lon="3.43019">
        <ele>21</ele>
        <time>2016-02-28T09:09:20Z</time>
      </trkpt>
      <trkpt lat="50.32291" lon="3.43047">
        <ele>20</ele>
        <time>2016-02-28T09:09:26Z</time>
      </trkpt>
      <trkpt lat="50.32289" lon="3.43058">
        <ele>21</ele>
        <time>2016-02-28T09:09:28Z</time>
      </trkpt>
      <trkpt lat="50.32283" lon="3.43118">
        <ele>26</ele>
        <time>2016-02-28T09:09:39Z</time>
      </trkpt>
      <trkpt lat="50.32281" lon="3.43131">
        <ele>25</ele>
        <time>2016-02-28T09:09:40Z</time>
      </trkpt>
      <trkpt lat="50.32284" lon="3.43168">
        <ele>24</ele>
        <time>2016-02-28T09:09:46Z</time>
      </trkpt>
      <trkpt lat="50.32294" lon="3.43219">
        <ele>25</ele>
        <time>2016-02-28T09:09:55Z</time>
      </trkpt>
      <trkpt lat="50.32294" lon="3.43233">
        <ele>28</ele>
        <time>2016-02-28T09:09:58Z</time>
      </trkpt>
      <trkpt lat="50.32277" lon="3.43265">
        <ele>25</ele>
        <time>2016-02-28T09:10:09Z</time>
      </trkpt>
      <trkpt lat="50.32274" lon="3.43269">
        <ele>25</ele>
        <time>2016-02-28T09:10:10Z</time>
      </trkpt>
      <trkpt lat="50.3226" lon="3.43299">
        <ele>25</ele>
        <time>2016-02-28T09:10:17Z</time>
      </trkpt>
      <trkpt lat="50.32244" lon="3.43353">
        <ele>25</ele>
        <time>2016-02-28T09:10:27Z</time>
      </trkpt>
      <trkpt lat="50.32242" lon="3.4336">
        <ele>25</ele>
        <time>2016-02-28T09:10:28Z</time>
      </trkpt>
      <trkpt lat="50.32233" lon="3.43398">
        <ele>26</ele>
        <time>2016-02-28T09:10:34Z</time>
      </trkpt>
      <trkpt lat="50.3222" lon="3.43427">
        <ele>24</ele>
        <time>2016-02-28T09:10:40Z</time>
      </trkpt>
      <trkpt lat="50.3221" lon="3.43463">
        <ele>26</ele>
        <time>2016-02-28T09:10:46Z</time>
      </trkpt>
      <trkpt lat="50.32199" lon="3.43494">
        <ele>26</ele>
        <time>2016-02-28T09:10:52Z</time>
      </trkpt>
      <trkpt lat="50.32187" lon="3.43526">
        <ele>26</ele>
        <time>2016-02-28T09:10:58Z</time>
      </trkpt>
      <trkpt lat="50.32172" lon="3.43557">
        <ele>24</ele>
        <time>2016-02-28T09:11:04Z</time>
      </trkpt>
      <trkpt lat="50.32152" lon="3.43612">
        <ele>27</ele>
        <time>2016-02-28T09:11:13Z</time>
      </trkpt>
      <trkpt lat="50.32144" lon="3.43628">
        <ele>27</ele>
        <time>2016-02-28T09:11:16Z</time>
      </trkpt>
      <trkpt lat="50.32128" lon="3.43662">
        <ele>27</ele>
        <time>2016-02-28T09:11:23Z</time>
      </trkpt>
      <trkpt lat="50.32117" lon="3.43683">
        <ele>24</ele>
        <time>2016-02-28T09:11:28Z</time>
      </trkpt>
      <trkpt lat="50.32102" lon="3.43714">
        <ele>26</ele>
        <time>2016-02-28T09:11:34Z</time>
      </trkpt>
      <trkpt lat="50.32086" lon="3.43739">
        <ele>25</ele>
        <time>2016-02-28T09:11:40Z</time>
      </trkpt>
      <trkpt lat="50.32063" lon="3.43781">
        <ele>25</ele>
        <time>2016-02-28T09:11:48Z</time>
      </trkpt>
      <trkpt lat="50.32052" lon="3.43805">
        <ele>28</ele>
        <time>2016-02-28T09:11:52Z</time>
      </trkpt>
      <trkpt lat="50.3202" lon="3.43849">
        <ele>28</ele>
        <time>2016-02-28T09:12:01Z</time>
      </trkpt>
      <trkpt lat="50.32003" lon="3.43873">
        <ele>28</ele>
        <time>2016-02-28T09:12:06Z</time>
      </trkpt>
      <trkpt lat="50.31975" lon="3.43909">
        <ele>29</ele>
        <time>2016-02-28T09:12:14Z</time>
      </trkpt>
      <trkpt lat="50.31969" lon="3.43919">
        <ele>29</ele>
        <time>2016-02-28T09:12:16Z</time>
      </trkpt>
      <trkpt lat="50.31951" lon="3.43938">
        <ele>28</ele>
        <time>2016-02-28T09:12:22Z</time>
      </trkpt>
      <trkpt lat="50.31928" lon="3.43964">
        <ele>29</ele>
        <time>2016-02-28T09:12:28Z</time>
      </trkpt>
      <trkpt lat="50.31888" lon="3.44013">
        <ele>28</ele>
        <time>2016-02-28T09:12:38Z</time>
      </trkpt>
      <trkpt lat="50.3188" lon="3.44023">
        <ele>27</ele>
        <time>2016-02-28T09:12:40Z</time>
      </trkpt>
      <trkpt lat="50.31858" lon="3.44053">
        <ele>28</ele>
        <time>2016-02-28T09:12:46Z</time>
      </trkpt>
      <trkpt lat="50.31836" lon="3.44079">
        <ele>29</ele>
        <time>2016-02-28T09:12:52Z</time>
      </trkpt>
      <trkpt lat="50.31806" lon="3.44119">
        <ele>30</ele>
        <time>2016-02-28T09:13:00Z</time>
      </trkpt>
      <trkpt lat="50.31791" lon="3.44136">
        <ele>31</ele>
        <time>2016-02-28T09:13:04Z</time>
      </trkpt>
      <trkpt lat="50.31768" lon="3.44163">
        <ele>31</ele>
        <time>2016-02-28T09:13:10Z</time>
      </trkpt>
      <trkpt lat="50.31746" lon="3.44175">
        <ele>32</ele>
        <time>2016-02-28T09:13:16Z</time>
      </trkpt>
      <trkpt lat="50.31725" lon="3.44155">
        <ele>31</ele>
        <time>2016-02-28T09:13:22Z</time>
      </trkpt>
      <trkpt lat="50.31701" lon="3.44134">
        <ele>31</ele>
        <time>2016-02-28T09:13:28Z</time>
      </trkpt>
      <trkpt lat="50.31677" lon="3.44112">
        <ele>31</ele>
        <time>2016-02-28T09:13:34Z</time>
      </trkpt>
      <trkpt lat="50.31653" lon="3.44092">
        <ele>27</ele>
        <time>2016-02-28T09:13:40Z</time>
      </trkpt>
      <trkpt lat="50.3163" lon="3.4407">
        <ele>28</ele>
        <time>2016-02-28T09:13:46Z</time>
      </trkpt>
      <trkpt lat="50.31607" lon="3.44047">
        <ele>28</ele>
        <time>2016-02-28T09:13:52Z</time>
      </trkpt>
      <trkpt lat="50.31581" lon="3.4402">
        <ele>26</ele>
        <time>2016-02-28T09:13:59Z</time>
      </trkpt>
      <trkpt lat="50.31562" lon="3.44001">
        <ele>25</ele>
        <time>2016-02-28T09:14:04Z</time>
      </trkpt>
      <trkpt lat="50.31539" lon="3.43979">
        <ele>24</ele>
        <time>2016-02-28T09:14:10Z</time>
      </trkpt>
      <trkpt lat="50.31516" lon="3.43957">
        <ele>23</ele>
        <time>2016-02-28T09:14:16Z</time>
      </trkpt>
      <trkpt lat="50.31487" lon="3.43931">
        <ele>23</ele>
        <time>2016-02-28T09:14:23Z</time>
      </trkpt>
      <trkpt lat="50.31476" lon="3.43917">
        <ele>25</ele>
        <time>2016-02-28T09:14:28Z</time>
      </trkpt>
      <trkpt lat="50.31462" lon="3.43917">
        <ele>24</ele>
        <time>2016-02-28T09:14:34Z</time>
      </trkpt>
      <trkpt lat="50.31443" lon="3.4392">
        <ele>19</ele>
        <time>2016-02-28T09:14:40Z</time>
      </trkpt>
      <trkpt lat="50.31411" lon="3.4393">
        <ele>22</ele>
        <time>2016-02-28T09:14:48Z</time>
      </trkpt>
      <trkpt lat="50.31393" lon="3.43937">
        <ele>25</ele>
        <time>2016-02-28T09:14:52Z</time>
      </trkpt>
      <trkpt lat="50.31366" lon="3.43945">
        <ele>25</ele>
        <time>2016-02-28T09:14:58Z</time>
      </trkpt>
      <trkpt lat="50.31339" lon="3.43955">
        <ele>24</ele>
        <time>2016-02-28T09:15:04Z</time>
      </trkpt>
      <trkpt lat="50.31311" lon="3.43988">
        <ele>25</ele>
        <time>2016-02-28T09:15:12Z</time>
      </trkpt>
      <trkpt lat="50.31284" lon="3.44022">
        <ele>23</ele>
        <time>2016-02-28T09:15:20Z</time>
      </trkpt>
      <trkpt lat="50.31278" lon="3.44031">
        <ele>23</ele>
        <time>2016-02-28T09:15:22Z</time>
      </trkpt>
      <trkpt lat="50.31244" lon="3.44077">
        <ele>27</ele>
        <time>2016-02-28T09:15:31Z</time>
      </trkpt>
      <trkpt lat="50.31233" lon="3.4409">
        <ele>27</ele>
        <time>2016-02-28T09:15:34Z</time>
      </trkpt>
      <trkpt lat="50.31213" lon="3.44119">
        <ele>27</ele>
        <time>2016-02-28T09:15:40Z</time>
      </trkpt>
      <trkpt lat="50.31187" lon="3.44154">
        <ele>27</ele>
        <time>2016-02-28T09:15:47Z</time>
      </trkpt>
      <trkpt lat="50.31153" lon="3.44207">
        <ele>32</ele>
        <time>2016-02-28T09:15:57Z</time>
      </trkpt>
      <trkpt lat="50.31134" lon="3.44228">
        <ele>30</ele>
        <time>2016-02-28T09:16:03Z</time>
      </trkpt>
      <trkpt lat="50.31124" lon="3.4424">
        <ele>29</ele>
        <time>2016-02-28T09:16:06Z</time>
      </trkpt>
      <trkpt lat="50.31111" lon="3.44255">
        <ele>30</ele>
        <time>2016-02-28T09:16:10Z</time>
      </trkpt>
      <trkpt lat="50.31086" lon="3.4428">
        <ele>30</ele>
        <time>2016-02-28T09:16:17Z</time>
      </trkpt>
      <trkpt lat="50.31066" lon="3.44308">
        <ele>29</ele>
        <time>2016-02-28T09:16:22Z</time>
      </trkpt>
      <trkpt lat="50.3103" lon="3.44346">
        <ele>26</ele>
        <time>2016-02-28T09:16:31Z</time>
      </trkpt>
      <trkpt lat="50.3102" lon="3.44357">
        <ele>25</ele>
        <time>2016-02-28T09:16:34Z</time>
      </trkpt>
      <trkpt lat="50.31001" lon="3.44388">
        <ele>27</ele>
        <time>2016-02-28T09:16:41Z</time>
      </trkpt>
      <trkpt lat="50.31019" lon="3.44459">
        <ele>25</ele>
        <time>2016-02-28T09:16:51Z</time>
      </trkpt>
      <trkpt lat="50.31021" lon="3.44466">
        <ele>26</ele>
        <time>2016-02-28T09:16:52Z</time>
      </trkpt>
      <trkpt lat="50.31016" lon="3.44508">
        <ele>26</ele>
        <time>2016-02-28T09:16:58Z</time>
      </trkpt>
      <trkpt lat="50.31" lon="3.44569">
        <ele>29</ele>
        <time>2016-02-28T09:17:07Z</time>
      </trkpt>
      <trkpt lat="50.30994" lon="3.44589">
        <ele>30</ele>
        <time>2016-02-28T09:17:10Z</time>
      </trkpt>
      <trkpt lat="50.30981" lon="3.44653">
        <ele>25</ele>
        <time>2016-02-28T09:17:20Z</time>
      </trkpt>
      <trkpt lat="50.30978" lon="3.44666">
        <ele>25</ele>
        <time>2016-02-28T09:17:22Z</time>
      </trkpt>
      <trkpt lat="50.30969" lon="3.44706">
        <ele>25</ele>
        <time>2016-02-28T09:17:28Z</time>
      </trkpt>
      <trkpt lat="50.30958" lon="3.44744">
        <ele>27</ele>
        <time>2016-02-28T09:17:34Z</time>
      </trkpt>
      <trkpt lat="50.30949" lon="3.44786">
        <ele>27</ele>
        <time>2016-02-28T09:17:41Z</time>
      </trkpt>
      <trkpt lat="50.30945" lon="3.44798">
        <ele>25</ele>
        <time>2016-02-28T09:17:48Z</time>
      </trkpt>
      <trkpt lat="50.30945" lon="3.44802">
        <ele>28</ele>
        <time>2016-02-28T09:17:57Z</time>
      </trkpt>
      <trkpt lat="50.30948" lon="3.44805">
        <ele>28</ele>
        <time>2016-02-28T09:17:58Z</time>
      </trkpt>
      <trkpt lat="50.30964" lon="3.44813">
        <ele>26</ele>
        <time>2016-02-28T09:18:04Z</time>
      </trkpt>
      <trkpt lat="50.31006" lon="3.44819">
        <ele>29</ele>
        <time>2016-02-28T09:18:15Z</time>
      </trkpt>
      <trkpt lat="50.3101" lon="3.4482">
        <ele>29</ele>
        <time>2016-02-28T09:18:16Z</time>
      </trkpt>
      <trkpt lat="50.31056" lon="3.44836">
        <ele>32</ele>
        <time>2016-02-28T09:18:27Z</time>
      </trkpt>
      <trkpt lat="50.31073" lon="3.4484">
        <ele>34</ele>
        <time>2016-02-28T09:18:30Z</time>
      </trkpt>
      <trkpt lat="50.31109" lon="3.44855">
        <ele>34</ele>
        <time>2016-02-28T09:18:38Z</time>
      </trkpt>
      <trkpt lat="50.31114" lon="3.44865">
        <ele>34</ele>
        <time>2016-02-28T09:18:40Z</time>
      </trkpt>
      <trkpt lat="50.31131" lon="3.44895">
        <ele>32</ele>
        <time>2016-02-28T09:18:46Z</time>
      </trkpt>
      <trkpt lat="50.31148" lon="3.44931">
        <ele>31</ele>
        <time>2016-02-28T09:18:52Z</time>
      </trkpt>
      <trkpt lat="50.31165" lon="3.44962">
        <ele>31</ele>
        <time>2016-02-28T09:18:58Z</time>
      </trkpt>
      <trkpt lat="50.31179" lon="3.4499">
        <ele>30</ele>
        <time>2016-02-28T09:19:04Z</time>
      </trkpt>
      <trkpt lat="50.31195" lon="3.4502">
        <ele>30</ele>
        <time>2016-02-28T09:19:10Z</time>
      </trkpt>
      <trkpt lat="50.31213" lon="3.45053">
        <ele>30</ele>
        <time>2016-02-28T09:19:17Z</time>
      </trkpt>
      <trkpt lat="50.31223" lon="3.45074">
        <ele>30</ele>
        <time>2016-02-28T09:19:22Z</time>
      </trkpt>
      <trkpt lat="50.3124" lon="3.45109">
        <ele>29</ele>
        <time>2016-02-28T09:19:30Z</time>
      </trkpt>
      <trkpt lat="50.31252" lon="3.45129">
        <ele>31</ele>
        <time>2016-02-28T09:19:36Z</time>
      </trkpt>
      <trkpt lat="50.31251" lon="3.45146">
        <ele>30</ele>
        <time>2016-02-28T09:19:40Z</time>
      </trkpt>
      <trkpt lat="50.3125" lon="3.45182">
        <ele>29</ele>
        <time>2016-02-28T09:19:46Z</time>
      </trkpt>
      <trkpt lat="50.31248" lon="3.45231">
        <ele>27</ele>
        <time>2016-02-28T09:19:54Z</time>
      </trkpt>
      <trkpt lat="50.31246" lon="3.45254">
        <ele>26</ele>
        <time>2016-02-28T09:19:58Z</time>
      </trkpt>
      <trkpt lat="50.31242" lon="3.45287">
        <ele>26</ele>
        <time>2016-02-28T09:20:04Z</time>
      </trkpt>
      <trkpt lat="50.31235" lon="3.45347">
        <ele>24</ele>
        <time>2016-02-28T09:20:15Z</time>
      </trkpt>
      <trkpt lat="50.3123" lon="3.45371">
        <ele>23</ele>
        <time>2016-02-28T09:20:21Z</time>
      </trkpt>
      <trkpt lat="50.31228" lon="3.45389">
        <ele>25</ele>
        <time>2016-02-28T09:20:25Z</time>
      </trkpt>
      <trkpt lat="50.31225" lon="3.45401">
        <ele>24</ele>
        <time>2016-02-28T09:20:28Z</time>
      </trkpt>
      <trkpt lat="50.31222" lon="3.45445">
        <ele>25</ele>
        <time>2016-02-28T09:20:36Z</time>
      </trkpt>
      <trkpt lat="50.31223" lon="3.45471">
        <ele>26</ele>
        <time>2016-02-28T09:20:41Z</time>
      </trkpt>
      <trkpt lat="50.31219" lon="3.45503">
        <ele>27</ele>
        <time>2016-02-28T09:20:47Z</time>
      </trkpt>
      <trkpt lat="50.31216" lon="3.45535">
        <ele>27</ele>
        <time>2016-02-28T09:20:52Z</time>
      </trkpt>
      <trkpt lat="50.31214" lon="3.45571">
        <ele>28</ele>
        <time>2016-02-28T09:20:58Z</time>
      </trkpt>
      <trkpt lat="50.31211" lon="3.45608">
        <ele>27</ele>
        <time>2016-02-28T09:21:05Z</time>
      </trkpt>
      <trkpt lat="50.31205" lon="3.4566">
        <ele>24</ele>
        <time>2016-02-28T09:21:15Z</time>
      </trkpt>
      <trkpt lat="50.31205" lon="3.45666">
        <ele>23</ele>
        <time>2016-02-28T09:21:16Z</time>
      </trkpt>
      <trkpt lat="50.31204" lon="3.45719">
        <ele>25</ele>
        <time>2016-02-28T09:21:26Z</time>
      </trkpt>
      <trkpt lat="50.31203" lon="3.4574">
        <ele>24</ele>
        <time>2016-02-28T09:21:30Z</time>
      </trkpt>
      <trkpt lat="50.31201" lon="3.45758">
        <ele>24</ele>
        <time>2016-02-28T09:21:34Z</time>
      </trkpt>
      <trkpt lat="50.31199" lon="3.45784">
        <ele>23</ele>
        <time>2016-02-28T09:21:40Z</time>
      </trkpt>
      <trkpt lat="50.31199" lon="3.45809">
        <ele>23</ele>
        <time>2016-02-28T09:21:46Z</time>
      </trkpt>
      <trkpt lat="50.31199" lon="3.45833">
        <ele>22</ele>
        <time>2016-02-28T09:21:52Z</time>
      </trkpt>
      <trkpt lat="50.31199" lon="3.45858">
        <ele>22</ele>
        <time>2016-02-28T09:21:58Z</time>
      </trkpt>
      <trkpt lat="50.31199" lon="3.45883">
        <ele>23</ele>
        <time>2016-02-28T09:22:04Z</time>
      </trkpt>
      <trkpt lat="50.31206" lon="3.45941">
        <ele>25</ele>
        <time>2016-02-28T09:22:15Z</time>
      </trkpt>
      <trkpt lat="50.3121" lon="3.45961">
        <ele>27</ele>
        <time>2016-02-28T09:22:18Z</time>
      </trkpt>
      <trkpt lat="50.31213" lon="3.45992">
        <ele>27</ele>
        <time>2016-02-28T09:22:24Z</time>
      </trkpt>
      <trkpt lat="50.31216" lon="3.46015">
        <ele>29</ele>
        <time>2016-02-28T09:22:28Z</time>
      </trkpt>
      <trkpt lat="50.31216" lon="3.46046">
        <ele>28</ele>
        <time>2016-02-28T09:22:34Z</time>
      </trkpt>
      <trkpt lat="50.31199" lon="3.46068">
        <ele>23</ele>
        <time>2016-02-28T09:22:42Z</time>
      </trkpt>
      <trkpt lat="50.31179" lon="3.46091">
        <ele>23</ele>
        <time>2016-02-28T09:22:51Z</time>
      </trkpt>
      <trkpt lat="50.31171" lon="3.46107">
        <ele>25</ele>
        <time>2016-02-28T09:22:56Z</time>
      </trkpt>
      <trkpt lat="50.31171" lon="3.46113">
        <ele>23</ele>
        <time>2016-02-28T09:22:58Z</time>
      </trkpt>
      <trkpt lat="50.31186" lon="3.46136">
        <ele>24</ele>
        <time>2016-02-28T09:23:06Z</time>
      </trkpt>
      <trkpt lat="50.31195" lon="3.4615">
        <ele>22</ele>
        <time>2016-02-28T09:23:11Z</time>
      </trkpt>
      <trkpt lat="50.31208" lon="3.46169">
        <ele>27</ele>
        <time>2016-02-28T09:23:17Z</time>
      </trkpt>
      <trkpt lat="50.31217" lon="3.46186">
        <ele>27</ele>
        <time>2016-02-28T09:23:22Z</time>
      </trkpt>
      <trkpt lat="50.31222" lon="3.4621">
        <ele>29</ele>
        <time>2016-02-28T09:23:28Z</time>
      </trkpt>
      <trkpt lat="50.31227" lon="3.46237">
        <ele>29</ele>
        <time>2016-02-28T09:23:34Z</time>
      </trkpt>
      <trkpt lat="50.31232" lon="3.46261">
        <ele>30</ele>
        <time>2016-02-28T09:23:40Z</time>
      </trkpt>
      <trkpt lat="50.31243" lon="3.46297">
        <ele>35</ele>
        <time>2016-02-28T09:23:49Z</time>
      </trkpt>
      <trkpt lat="50.31251" lon="3.4632">
        <ele>39</ele>
        <time>2016-02-28T09:23:55Z</time>
      </trkpt>
      <trkpt lat="50.31244" lon="3.46339">
        <ele>36</ele>
        <time>2016-02-28T09:23:59Z</time>
      </trkpt>
      <trkpt lat="50.31244" lon="3.46368">
        <ele>36</ele>
        <time>2016-02-28T09:24:06Z</time>
      </trkpt>
      <trkpt lat="50.31244" lon="3.46389">
        <ele>34</ele>
        <time>2016-02-28T09:24:11Z</time>
      </trkpt>
      <trkpt lat="50.3124" lon="3.46409">
        <ele>32</ele>
        <time>2016-02-28T09:24:16Z</time>
      </trkpt>
      <trkpt lat="50.31242" lon="3.46438">
        <ele>31</ele>
        <time>2016-02-28T09:24:23Z</time>
      </trkpt>
      <trkpt lat="50.31239" lon="3.46473">
        <ele>23</ele>
        <time>2016-02-28T09:24:33Z</time>
      </trkpt>
      <trkpt lat="50.3124" lon="3.46475">
        <ele>23</ele>
        <time>2016-02-28T09:24:34Z</time>
      </trkpt>
      <trkpt lat="50.31243" lon="3.46497">
        <ele>23</ele>
        <time>2016-02-28T09:24:40Z</time>
      </trkpt>
      <trkpt lat="50.31246" lon="3.46546">
        <ele>24</ele>
        <time>2016-02-28T09:24:50Z</time>
      </trkpt>
      <trkpt lat="50.31242" lon="3.46591">
        <ele>26</ele>
        <time>2016-02-28T09:24:57Z</time>
      </trkpt>
      <trkpt lat="50.31243" lon="3.46597">
        <ele>26</ele>
        <time>2016-02-28T09:24:58Z</time>
      </trkpt>
      <trkpt lat="50.31245" lon="3.46629">
        <ele>26</ele>
        <time>2016-02-28T09:25:05Z</time>
      </trkpt>
      <trkpt lat="50.31248" lon="3.46657">
        <ele>26</ele>
        <time>2016-02-28T09:25:11Z</time>
      </trkpt>
      <trkpt lat="50.31245" lon="3.4668">
        <ele>28</ele>
        <time>2016-02-28T09:25:16Z</time>
      </trkpt>
      <trkpt lat="50.31252" lon="3.46707">
        <ele>29</ele>
        <time>2016-02-28T09:25:22Z</time>
      </trkpt>
      <trkpt lat="50.31274" lon="3.46748">
        <ele>34</ele>
        <time>2016-02-28T09:25:33Z</time>
      </trkpt>
      <trkpt lat="50.31277" lon="3.46774">
        <ele>36</ele>
        <time>2016-02-28T09:25:38Z</time>
      </trkpt>
      <trkpt lat="50.31279" lon="3.46781">
        <ele>36</ele>
        <time>2016-02-28T09:25:40Z</time>
      </trkpt>
      <trkpt lat="50.31287" lon="3.46817">
        <ele>40</ele>
        <time>2016-02-28T09:25:48Z</time>
      </trkpt>
      <trkpt lat="50.31294" lon="3.46843">
        <ele>42</ele>
        <time>2016-02-28T09:25:54Z</time>
      </trkpt>
      <trkpt lat="50.313" lon="3.46877">
        <ele>44</ele>
        <time>2016-02-28T09:26:02Z</time>
      </trkpt>
      <trkpt lat="50.31299" lon="3.46889">
        <ele>42</ele>
        <time>2016-02-28T09:26:05Z</time>
      </trkpt>
      <trkpt lat="50.31301" lon="3.46907">
        <ele>40</ele>
        <time>2016-02-28T09:26:10Z</time>
      </trkpt>
      <trkpt lat="50.31307" lon="3.4694">
        <ele>40</ele>
        <time>2016-02-28T09:26:18Z</time>
      </trkpt>
      <trkpt lat="50.31303" lon="3.46956">
        <ele>35</ele>
        <time>2016-02-28T09:26:22Z</time>
      </trkpt>
      <trkpt lat="50.31308" lon="3.46984">
        <ele>35</ele>
        <time>2016-02-28T09:26:28Z</time>
      </trkpt>
      <trkpt lat="50.31313" lon="3.47009">
        <ele>35</ele>
        <time>2016-02-28T09:26:34Z</time>
      </trkpt>
      <trkpt lat="50.31317" lon="3.47034">
        <ele>34</ele>
        <time>2016-02-28T09:26:40Z</time>
      </trkpt>
      <trkpt lat="50.3132" lon="3.47058">
        <ele>32</ele>
        <time>2016-02-28T09:26:46Z</time>
      </trkpt>
      <trkpt lat="50.31327" lon="3.47086">
        <ele>32</ele>
        <time>2016-02-28T09:26:54Z</time>
      </trkpt>
      <trkpt lat="50.31326" lon="3.47086">
        <ele>31</ele>
        <time>2016-02-28T09:27:00Z</time>
      </trkpt>
      <trkpt lat="50.31329" lon="3.47087">
        <ele>31</ele>
        <time>2016-02-28T09:27:04Z</time>
      </trkpt>
      <trkpt lat="50.31334" lon="3.47098">
        <ele>32</ele>
        <time>2016-02-28T09:27:13Z</time>
      </trkpt>
      <trkpt lat="50.31338" lon="3.47108">
        <ele>33</ele>
        <time>2016-02-28T09:27:16Z</time>
      </trkpt>
      <trkpt lat="50.31347" lon="3.47126">
        <ele>33</ele>
        <time>2016-02-28T09:27:22Z</time>
      </trkpt>
      <trkpt lat="50.31358" lon="3.47148">
        <ele>34</ele>
        <time>2016-02-28T09:27:28Z</time>
      </trkpt>
      <trkpt lat="50.31369" lon="3.4717">
        <ele>35</ele>
        <time>2016-02-28T09:27:34Z</time>
      </trkpt>
      <trkpt lat="50.31381" lon="3.47197">
        <ele>35</ele>
        <time>2016-02-28T09:27:41Z</time>
      </trkpt>
      <trkpt lat="50.31391" lon="3.47218">
        <ele>37</ele>
        <time>2016-02-28T09:27:46Z</time>
      </trkpt>
      <trkpt lat="50.31403" lon="3.47242">
        <ele>39</ele>
        <time>2016-02-28T09:27:52Z</time>
      </trkpt>
      <trkpt lat="50.31416" lon="3.47265">
        <ele>40</ele>
        <time>2016-02-28T09:27:58Z</time>
      </trkpt>
      <trkpt lat="50.31429" lon="3.47286">
        <ele>41</ele>
        <time>2016-02-28T09:28:04Z</time>
      </trkpt>
      <trkpt lat="50.31446" lon="3.4731">
        <ele>41</ele>
        <time>2016-02-28T09:28:12Z</time>
      </trkpt>
      <trkpt lat="50.31454" lon="3.47322">
        <ele>41</ele>
        <time>2016-02-28T09:28:16Z</time>
      </trkpt>
      <trkpt lat="50.31463" lon="3.47342">
        <ele>41</ele>
        <time>2016-02-28T09:28:22Z</time>
      </trkpt>
      <trkpt lat="50.31475" lon="3.47373">
        <ele>38</ele>
        <time>2016-02-28T09:28:31Z</time>
      </trkpt>
      <trkpt lat="50.3148" lon="3.47383">
        <ele>38</ele>
        <time>2016-02-28T09:28:34Z</time>
      </trkpt>
      <trkpt lat="50.31486" lon="3.47405">
        <ele>36</ele>
        <time>2016-02-28T09:28:40Z</time>
      </trkpt>
      <trkpt lat="50.31499" lon="3.47444">
        <ele>32</ele>
        <time>2016-02-28T09:28:51Z</time>
      </trkpt>
      <trkpt lat="50.315" lon="3.47448">
        <ele>32</ele>
        <time>2016-02-28T09:28:52Z</time>
      </trkpt>
      <trkpt lat="50.3151" lon="3.47468">
        <ele>32</ele>
        <time>2016-02-28T09:28:58Z</time>
      </trkpt>
      <trkpt lat="50.3152" lon="3.47492">
        <ele>32</ele>
        <time>2016-02-28T09:29:04Z</time>
      </trkpt>
      <trkpt lat="50.31532" lon="3.47515">
        <ele>34</ele>
        <time>2016-02-28T09:29:10Z</time>
      </trkpt>
      <trkpt lat="50.31543" lon="3.47538">
        <ele>35</ele>
        <time>2016-02-28T09:29:16Z</time>
      </trkpt>
      <trkpt lat="50.31555" lon="3.47563">
        <ele>36</ele>
        <time>2016-02-28T09:29:22Z</time>
      </trkpt>
      <trkpt lat="50.31565" lon="3.47585">
        <ele>35</ele>
        <time>2016-02-28T09:29:28Z</time>
      </trkpt>
      <trkpt lat="50.31569" lon="3.47606">
        <ele>32</ele>
        <time>2016-02-28T09:29:34Z</time>
      </trkpt>
      <trkpt lat="50.31577" lon="3.47624">
        <ele>30</ele>
        <time>2016-02-28T09:29:40Z</time>
      </trkpt>
      <trkpt lat="50.31579" lon="3.47642">
        <ele>28</ele>
        <time>2016-02-28T09:29:49Z</time>
      </trkpt>
      <trkpt lat="50.31579" lon="3.47643">
        <ele>29</ele>
        <time>2016-02-28T09:29:54Z</time>
      </trkpt>
      <trkpt lat="50.31579" lon="3.47642">
        <ele>29</ele>
        <time>2016-02-28T09:29:58Z</time>
      </trkpt>
      <trkpt lat="50.31594" lon="3.4766">
        <ele>29</ele>
        <time>2016-02-28T09:30:06Z</time>
      </trkpt>
      <trkpt lat="50.31601" lon="3.47675">
        <ele>29</ele>
        <time>2016-02-28T09:30:10Z</time>
      </trkpt>
      <trkpt lat="50.31608" lon="3.47698">
        <ele>28</ele>
        <time>2016-02-28T09:30:16Z</time>
      </trkpt>
      <trkpt lat="50.31616" lon="3.4772">
        <ele>28</ele>
        <time>2016-02-28T09:30:22Z</time>
      </trkpt>
      <trkpt lat="50.31623" lon="3.47744">
        <ele>27</ele>
        <time>2016-02-28T09:30:28Z</time>
      </trkpt>
      <trkpt lat="50.31632" lon="3.47769">
        <ele>24</ele>
        <time>2016-02-28T09:30:34Z</time>
      </trkpt>
      <trkpt lat="50.31643" lon="3.47796">
        <ele>25</ele>
        <time>2016-02-28T09:30:40Z</time>
      </trkpt>
      <trkpt lat="50.31659" lon="3.47833">
        <ele>27</ele>
        <time>2016-02-28T09:30:49Z</time>
      </trkpt>
      <trkpt lat="50.31661" lon="3.4784">
        <ele>27</ele>
        <time>2016-02-28T09:30:51Z</time>
      </trkpt>
      <trkpt lat="50.31673" lon="3.47862">
        <ele>27</ele>
        <time>2016-02-28T09:30:57Z</time>
      </trkpt>
      <trkpt lat="50.31681" lon="3.47882">
        <ele>26</ele>
        <time>2016-02-28T09:31:03Z</time>
      </trkpt>
      <trkpt lat="50.31691" lon="3.47904">
        <ele>25</ele>
        <time>2016-02-28T09:31:09Z</time>
      </trkpt>
      <trkpt lat="50.31703" lon="3.47931">
        <ele>24</ele>
        <time>2016-02-28T09:31:17Z</time>
      </trkpt>
      <trkpt lat="50.31712" lon="3.47952">
        <ele>25</ele>
        <time>2016-02-28T09:31:23Z</time>
      </trkpt>
      <trkpt lat="50.31722" lon="3.47972">
        <ele>23</ele>
        <time>2016-02-28T09:31:28Z</time>
      </trkpt>
      <trkpt lat="50.31737" lon="3.48001">
        <ele>26</ele>
        <time>2016-02-28T09:31:36Z</time>
      </trkpt>
      <trkpt lat="50.31746" lon="3.48019">
        <ele>29</ele>
        <time>2016-02-28T09:31:42Z</time>
      </trkpt>
      <trkpt lat="50.31754" lon="3.48032">
        <ele>31</ele>
        <time>2016-02-28T09:31:46Z</time>
      </trkpt>
      <trkpt lat="50.31763" lon="3.48048">
        <ele>34</ele>
        <time>2016-02-28T09:31:51Z</time>
      </trkpt>
      <trkpt lat="50.31773" lon="3.48067">
        <ele>35</ele>
        <time>2016-02-28T09:31:57Z</time>
      </trkpt>
      <trkpt lat="50.31785" lon="3.4809">
        <ele>36</ele>
        <time>2016-02-28T09:32:05Z</time>
      </trkpt>
      <trkpt lat="50.31791" lon="3.48103">
        <ele>36</ele>
        <time>2016-02-28T09:32:09Z</time>
      </trkpt>
      <trkpt lat="50.31804" lon="3.48133">
        <ele>37</ele>
        <time>2016-02-28T09:32:17Z</time>
      </trkpt>
      <trkpt lat="50.31811" lon="3.48143">
        <ele>38</ele>
        <time>2016-02-28T09:32:21Z</time>
      </trkpt>
      <trkpt lat="50.31817" lon="3.48152">
        <ele>36</ele>
        <time>2016-02-28T09:32:27Z</time>
      </trkpt>
      <trkpt lat="50.31817" lon="3.48151">
        <ele>37</ele>
        <time>2016-02-28T09:32:33Z</time>
      </trkpt>
      <trkpt lat="50.31817" lon="3.48152">
        <ele>37</ele>
        <time>2016-02-28T09:32:39Z</time>
      </trkpt>
      <trkpt lat="50.31817" lon="3.48153">
        <ele>35</ele>
        <time>2016-02-28T09:32:50Z</time>
      </trkpt>
      <trkpt lat="50.3182" lon="3.48156">
        <ele>35</ele>
        <time>2016-02-28T09:32:52Z</time>
      </trkpt>
      <trkpt lat="50.31821" lon="3.48171">
        <ele>29</ele>
        <time>2016-02-28T09:32:57Z</time>
      </trkpt>
      <trkpt lat="50.31829" lon="3.48186">
        <ele>27</ele>
        <time>2016-02-28T09:33:02Z</time>
      </trkpt>
      <trkpt lat="50.31847" lon="3.48225">
        <ele>27</ele>
        <time>2016-02-28T09:33:08Z</time>
      </trkpt>
      <trkpt lat="50.31856" lon="3.48277">
        <ele>25</ele>
        <time>2016-02-28T09:33:18Z</time>
      </trkpt>
      <trkpt lat="50.31859" lon="3.48293">
        <ele>24</ele>
        <time>2016-02-28T09:33:22Z</time>
      </trkpt>
      <trkpt lat="50.3186" lon="3.48308">
        <ele>24</ele>
        <time>2016-02-28T09:33:26Z</time>
      </trkpt>
      <trkpt lat="50.31868" lon="3.48355">
        <ele>22</ele>
        <time>2016-02-28T09:33:37Z</time>
      </trkpt>
      <trkpt lat="50.31869" lon="3.48357">
        <ele>22</ele>
        <time>2016-02-28T09:33:38Z</time>
      </trkpt>
      <trkpt lat="50.31885" lon="3.48392">
        <ele>24</ele>
        <time>2016-02-28T09:33:49Z</time>
      </trkpt>
      <trkpt lat="50.31887" lon="3.48396">
        <ele>23</ele>
        <time>2016-02-28T09:33:50Z</time>
      </trkpt>
      <trkpt lat="50.31899" lon="3.48419">
        <ele>27</ele>
        <time>2016-02-28T09:33:56Z</time>
      </trkpt>
      <trkpt lat="50.31908" lon="3.48441">
        <ele>28</ele>
        <time>2016-02-28T09:34:02Z</time>
      </trkpt>
      <trkpt lat="50.31922" lon="3.48464">
        <ele>32</ele>
        <time>2016-02-28T09:34:08Z</time>
      </trkpt>
      <trkpt lat="50.31934" lon="3.48487">
        <ele>34</ele>
        <time>2016-02-28T09:34:14Z</time>
      </trkpt>
      <trkpt lat="50.31945" lon="3.48511">
        <ele>36</ele>
        <time>2016-02-28T09:34:20Z</time>
      </trkpt>
      <trkpt lat="50.31958" lon="3.48534">
        <ele>38</ele>
        <time>2016-02-28T09:34:26Z</time>
      </trkpt>
      <trkpt lat="50.3197" lon="3.48556">
        <ele>39</ele>
        <time>2016-02-28T09:34:32Z</time>
      </trkpt>
      <trkpt lat="50.31984" lon="3.48584">
        <ele>40</ele>
        <time>2016-02-28T09:34:39Z</time>
      </trkpt>
      <trkpt lat="50.31995" lon="3.486">
        <ele>46</ele>
        <time>2016-02-28T09:34:44Z</time>
      </trkpt>
      <trkpt lat="50.32006" lon="3.48624">
        <ele>46</ele>
        <time>2016-02-28T09:34:50Z</time>
      </trkpt>
      <trkpt lat="50.32017" lon="3.48646">
        <ele>44</ele>
        <time>2016-02-28T09:34:56Z</time>
      </trkpt>
      <trkpt lat="50.3203" lon="3.48668">
        <ele>48</ele>
        <time>2016-02-28T09:35:02Z</time>
      </trkpt>
      <trkpt lat="50.32041" lon="3.48689">
        <ele>46</ele>
        <time>2016-02-28T09:35:08Z</time>
      </trkpt>
      <trkpt lat="50.32061" lon="3.48712">
        <ele>52</ele>
        <time>2016-02-28T09:35:14Z</time>
      </trkpt>
      <trkpt lat="50.32073" lon="3.48733">
        <ele>49</ele>
        <time>2016-02-28T09:35:20Z</time>
      </trkpt>
      <trkpt lat="50.32084" lon="3.48754">
        <ele>48</ele>
        <time>2016-02-28T09:35:26Z</time>
      </trkpt>
      <trkpt lat="50.32097" lon="3.48772">
        <ele>45</ele>
        <time>2016-02-28T09:35:32Z</time>
      </trkpt>
      <trkpt lat="50.32108" lon="3.48789">
        <ele>44</ele>
        <time>2016-02-28T09:35:38Z</time>
      </trkpt>
      <trkpt lat="50.32121" lon="3.4881">
        <ele>45</ele>
        <time>2016-02-28T09:35:44Z</time>
      </trkpt>
      <trkpt lat="50.32132" lon="3.48831">
        <ele>39</ele>
        <time>2016-02-28T09:35:50Z</time>
      </trkpt>
      <trkpt lat="50.32143" lon="3.48853">
        <ele>39</ele>
        <time>2016-02-28T09:35:56Z</time>
      </trkpt>
      <trkpt lat="50.32155" lon="3.48873">
        <ele>39</ele>
        <time>2016-02-28T09:36:02Z</time>
      </trkpt>
      <trkpt lat="50.32168" lon="3.48895">
        <ele>39</ele>
        <time>2016-02-28T09:36:08Z</time>
      </trkpt>
      <trkpt lat="50.32185" lon="3.48922">
        <ele>36</ele>
        <time>2016-02-28T09:36:17Z</time>
      </trkpt>
      <trkpt lat="50.3219" lon="3.48931">
        <ele>35</ele>
        <time>2016-02-28T09:36:20Z</time>
      </trkpt>
      <trkpt lat="50.32206" lon="3.48949">
        <ele>34</ele>
        <time>2016-02-28T09:36:26Z</time>
      </trkpt>
      <trkpt lat="50.3222" lon="3.48969">
        <ele>36</ele>
        <time>2016-02-28T09:36:32Z</time>
      </trkpt>
      <trkpt lat="50.32235" lon="3.48989">
        <ele>36</ele>
        <time>2016-02-28T09:36:38Z</time>
      </trkpt>
      <trkpt lat="50.32249" lon="3.49012">
        <ele>38</ele>
        <time>2016-02-28T09:36:44Z</time>
      </trkpt>
      <trkpt lat="50.32264" lon="3.49033">
        <ele>38</ele>
        <time>2016-02-28T09:36:50Z</time>
      </trkpt>
      <trkpt lat="50.32277" lon="3.49054">
        <ele>36</ele>
        <time>2016-02-28T09:36:56Z</time>
      </trkpt>
      <trkpt lat="50.32293" lon="3.4908">
        <ele>32</ele>
        <time>2016-02-28T09:37:03Z</time>
      </trkpt>
      <trkpt lat="50.32306" lon="3.49097">
        <ele>32</ele>
        <time>2016-02-28T09:37:08Z</time>
      </trkpt>
      <trkpt lat="50.3232" lon="3.49117">
        <ele>33</ele>
        <time>2016-02-28T09:37:14Z</time>
      </trkpt>
      <trkpt lat="50.32341" lon="3.49145">
        <ele>35</ele>
        <time>2016-02-28T09:37:22Z</time>
      </trkpt>
      <trkpt lat="50.32351" lon="3.49162">
        <ele>37</ele>
        <time>2016-02-28T09:37:26Z</time>
      </trkpt>
      <trkpt lat="50.32366" lon="3.49183">
        <ele>38</ele>
        <time>2016-02-28T09:37:32Z</time>
      </trkpt>
      <trkpt lat="50.32388" lon="3.49216">
        <ele>40</ele>
        <time>2016-02-28T09:37:41Z</time>
      </trkpt>
      <trkpt lat="50.32402" lon="3.49236">
        <ele>38</ele>
        <time>2016-02-28T09:37:47Z</time>
      </trkpt>
      <trkpt lat="50.32409" lon="3.49248">
        <ele>40</ele>
        <time>2016-02-28T09:37:50Z</time>
      </trkpt>
      <trkpt lat="50.32421" lon="3.49271">
        <ele>38</ele>
        <time>2016-02-28T09:37:56Z</time>
      </trkpt>
      <trkpt lat="50.32436" lon="3.49288">
        <ele>35</ele>
        <time>2016-02-28T09:38:02Z</time>
      </trkpt>
      <trkpt lat="50.32453" lon="3.49314">
        <ele>32</ele>
        <time>2016-02-28T09:38:10Z</time>
      </trkpt>
      <trkpt lat="50.32463" lon="3.49327">
        <ele>34</ele>
        <time>2016-02-28T09:38:14Z</time>
      </trkpt>
      <trkpt lat="50.32475" lon="3.49347">
        <ele>36</ele>
        <time>2016-02-28T09:38:20Z</time>
      </trkpt>
      <trkpt lat="50.32481" lon="3.49357">
        <ele>38</ele>
        <time>2016-02-28T09:38:26Z</time>
      </trkpt>
      <trkpt lat="50.32481" lon="3.49355">
        <ele>39</ele>
        <time>2016-02-28T09:38:35Z</time>
      </trkpt>
      <trkpt lat="50.32478" lon="3.49356">
        <ele>36</ele>
        <time>2016-02-28T09:38:42Z</time>
      </trkpt>
      <trkpt lat="50.32478" lon="3.49358">
        <ele>36</ele>
        <time>2016-02-28T09:38:44Z</time>
      </trkpt>
      <trkpt lat="50.32477" lon="3.49359">
        <ele>36</ele>
        <time>2016-02-28T09:38:51Z</time>
      </trkpt>
      <trkpt lat="50.32477" lon="3.49358">
        <ele>36</ele>
        <time>2016-02-28T09:38:57Z</time>
      </trkpt>
      <trkpt lat="50.32477" lon="3.49358">
        <ele>36</ele>
        <time>2016-02-28T09:39:02Z</time>
      </trkpt>
      <trkpt lat="50.32477" lon="3.49358">
        <ele>36</ele>
        <time>2016-02-28T09:39:08Z</time>
      </trkpt>
      <trkpt lat="50.32475" lon="3.49364">
        <ele>37</ele>
        <time>2016-02-28T09:39:14Z</time>
      </trkpt>
      <trkpt lat="50.32457" lon="3.49387">
        <ele>35</ele>
        <time>2016-02-28T09:39:24Z</time>
      </trkpt>
      <trkpt lat="50.32454" lon="3.4939">
        <ele>34</ele>
        <time>2016-02-28T09:39:27Z</time>
      </trkpt>
      <trkpt lat="50.32442" lon="3.49411">
        <ele>35</ele>
        <time>2016-02-28T09:39:34Z</time>
      </trkpt>
      <trkpt lat="50.32435" lon="3.49416">
        <ele>32</ele>
        <time>2016-02-28T09:39:39Z</time>
      </trkpt>
      <trkpt lat="50.32423" lon="3.49441">
        <ele>28</ele>
        <time>2016-02-28T09:39:44Z</time>
      </trkpt>
      <trkpt lat="50.324" lon="3.49465">
        <ele>28</ele>
        <time>2016-02-28T09:39:54Z</time>
      </trkpt>
      <trkpt lat="50.32389" lon="3.49473">
        <ele>27</ele>
        <time>2016-02-28T09:39:57Z</time>
      </trkpt>
      <trkpt lat="50.32369" lon="3.49506">
        <ele>22</ele>
        <time>2016-02-28T09:40:04Z</time>
      </trkpt>
      <trkpt lat="50.32335" lon="3.49556">
        <ele>27</ele>
        <time>2016-02-28T09:40:13Z</time>
      </trkpt>
      <trkpt lat="50.3233" lon="3.4956">
        <ele>27</ele>
        <time>2016-02-28T09:40:14Z</time>
      </trkpt>
      <trkpt lat="50.32307" lon="3.49586">
        <ele>26</ele>
        <time>2016-02-28T09:40:20Z</time>
      </trkpt>
      <trkpt lat="50.32257" lon="3.49607">
        <ele>27</ele>
        <time>2016-02-28T09:40:31Z</time>
      </trkpt>
      <trkpt lat="50.32242" lon="3.49612">
        <ele>27</ele>
        <time>2016-02-28T09:40:34Z</time>
      </trkpt>
      <trkpt lat="50.32198" lon="3.49626">
        <ele>26</ele>
        <time>2016-02-28T09:40:43Z</time>
      </trkpt>
      <trkpt lat="50.32193" lon="3.49626">
        <ele>26</ele>
        <time>2016-02-28T09:40:44Z</time>
      </trkpt>
      <trkpt lat="50.32171" lon="3.49603">
        <ele>26</ele>
        <time>2016-02-28T09:40:50Z</time>
      </trkpt>
      <trkpt lat="50.32145" lon="3.49638">
        <ele>29</ele>
        <time>2016-02-28T09:41:01Z</time>
      </trkpt>
      <trkpt lat="50.32147" lon="3.49641">
        <ele>30</ele>
        <time>2016-02-28T09:41:02Z</time>
      </trkpt>
      <trkpt lat="50.32164" lon="3.49672">
        <ele>33</ele>
        <time>2016-02-28T09:41:08Z</time>
      </trkpt>
      <trkpt lat="50.32172" lon="3.49704">
        <ele>35</ele>
        <time>2016-02-28T09:41:14Z</time>
      </trkpt>
      <trkpt lat="50.32184" lon="3.49751">
        <ele>34</ele>
        <time>2016-02-28T09:41:23Z</time>
      </trkpt>
      <trkpt lat="50.32185" lon="3.49787">
        <ele>36</ele>
        <time>2016-02-28T09:41:29Z</time>
      </trkpt>
      <trkpt lat="50.32187" lon="3.49805">
        <ele>36</ele>
        <time>2016-02-28T09:41:32Z</time>
      </trkpt>
      <trkpt lat="50.3219" lon="3.49846">
        <ele>39</ele>
        <time>2016-02-28T09:41:39Z</time>
      </trkpt>
      <trkpt lat="50.32184" lon="3.49887">
        <ele>41</ele>
        <time>2016-02-28T09:41:47Z</time>
      </trkpt>
      <trkpt lat="50.32174" lon="3.49904">
        <ele>41</ele>
        <time>2016-02-28T09:41:52Z</time>
      </trkpt>
      <trkpt lat="50.3215" lon="3.49904">
        <ele>37</ele>
        <time>2016-02-28T09:41:58Z</time>
      </trkpt>
      <trkpt lat="50.32137" lon="3.49892">
        <ele>35</ele>
        <time>2016-02-28T09:42:02Z</time>
      </trkpt>
      <trkpt lat="50.32118" lon="3.49874">
        <ele>31</ele>
        <time>2016-02-28T09:42:08Z</time>
      </trkpt>
      <trkpt lat="50.32099" lon="3.4985">
        <ele>26</ele>
        <time>2016-02-28T09:42:14Z</time>
      </trkpt>
      <trkpt lat="50.32075" lon="3.49823">
        <ele>21</ele>
        <time>2016-02-28T09:42:21Z</time>
      </trkpt>
      <trkpt lat="50.32055" lon="3.49793">
        <ele>20</ele>
        <time>2016-02-28T09:42:27Z</time>
      </trkpt>
      <trkpt lat="50.32036" lon="3.49769">
        <ele>18</ele>
        <time>2016-02-28T09:42:32Z</time>
      </trkpt>
      <trkpt lat="50.31998" lon="3.49724">
        <ele>24</ele>
        <time>2016-02-28T09:42:41Z</time>
      </trkpt>
      <trkpt lat="50.31985" lon="3.49711">
        <ele>26</ele>
        <time>2016-02-28T09:42:44Z</time>
      </trkpt>
      <trkpt lat="50.31944" lon="3.49662">
        <ele>27</ele>
        <time>2016-02-28T09:42:55Z</time>
      </trkpt>
      <trkpt lat="50.31941" lon="3.49659">
        <ele>27</ele>
        <time>2016-02-28T09:42:56Z</time>
      </trkpt>
      <trkpt lat="50.31921" lon="3.49636">
        <ele>25</ele>
        <time>2016-02-28T09:43:02Z</time>
      </trkpt>
      <trkpt lat="50.31896" lon="3.49612">
        <ele>23</ele>
        <time>2016-02-28T09:43:09Z</time>
      </trkpt>
      <trkpt lat="50.31879" lon="3.49593">
        <ele>22</ele>
        <time>2016-02-28T09:43:14Z</time>
      </trkpt>
      <trkpt lat="50.31844" lon="3.49557">
        <ele>21</ele>
        <time>2016-02-28T09:43:23Z</time>
      </trkpt>
      <trkpt lat="50.31835" lon="3.49546">
        <ele>19</ele>
        <time>2016-02-28T09:43:26Z</time>
      </trkpt>
      <trkpt lat="50.31811" lon="3.49523">
        <ele>18</ele>
        <time>2016-02-28T09:43:32Z</time>
      </trkpt>
      <trkpt lat="50.31783" lon="3.49497">
        <ele>18</ele>
        <time>2016-02-28T09:43:39Z</time>
      </trkpt>
      <trkpt lat="50.31752" lon="3.49469">
        <ele>18</ele>
        <time>2016-02-28T09:43:47Z</time>
      </trkpt>
      <trkpt lat="50.31736" lon="3.49461">
        <ele>18</ele>
        <time>2016-02-28T09:43:51Z</time>
      </trkpt>
      <trkpt lat="50.31697" lon="3.49444">
        <ele>18</ele>
        <time>2016-02-28T09:44:01Z</time>
      </trkpt>
      <trkpt lat="50.31672" lon="3.49434">
        <ele>19</ele>
        <time>2016-02-28T09:44:07Z</time>
      </trkpt>
      <trkpt lat="50.3165" lon="3.49423">
        <ele>20</ele>
        <time>2016-02-28T09:44:12Z</time>
      </trkpt>
      <trkpt lat="50.31643" lon="3.49421">
        <ele>19</ele>
        <time>2016-02-28T09:44:14Z</time>
      </trkpt>
      <trkpt lat="50.31621" lon="3.49408">
        <ele>18</ele>
        <time>2016-02-28T09:44:20Z</time>
      </trkpt>
      <trkpt lat="50.31603" lon="3.49399">
        <ele>18</ele>
        <time>2016-02-28T09:44:26Z</time>
      </trkpt>
      <trkpt lat="50.31584" lon="3.49387">
        <ele>20</ele>
        <time>2016-02-28T09:44:32Z</time>
      </trkpt>
      <trkpt lat="50.31552" lon="3.49362">
        <ele>19</ele>
        <time>2016-02-28T09:44:42Z</time>
      </trkpt>
      <trkpt lat="50.31545" lon="3.49358">
        <ele>20</ele>
        <time>2016-02-28T09:44:44Z</time>
      </trkpt>
      <trkpt lat="50.31526" lon="3.49345">
        <ele>21</ele>
        <time>2016-02-28T09:44:50Z</time>
      </trkpt>
      <trkpt lat="50.31506" lon="3.49335">
        <ele>20</ele>
        <time>2016-02-28T09:44:56Z</time>
      </trkpt>
      <trkpt lat="50.31478" lon="3.49313">
        <ele>21</ele>
        <time>2016-02-28T09:45:05Z</time>
      </trkpt>
      <trkpt lat="50.31469" lon="3.49308">
        <ele>21</ele>
        <time>2016-02-28T09:45:08Z</time>
      </trkpt>
      <trkpt lat="50.31431" lon="3.49295">
        <ele>23</ele>
        <time>2016-02-28T09:45:18Z</time>
      </trkpt>
      <trkpt lat="50.31423" lon="3.49291">
        <ele>24</ele>
        <time>2016-02-28T09:45:21Z</time>
      </trkpt>
      <trkpt lat="50.31393" lon="3.49275">
        <ele>27</ele>
        <time>2016-02-28T09:45:30Z</time>
      </trkpt>
      <trkpt lat="50.31386" lon="3.49272">
        <ele>28</ele>
        <time>2016-02-28T09:45:32Z</time>
      </trkpt>
      <trkpt lat="50.31366" lon="3.49259">
        <ele>27</ele>
        <time>2016-02-28T09:45:38Z</time>
      </trkpt>
      <trkpt lat="50.31346" lon="3.49246">
        <ele>26</ele>
        <time>2016-02-28T09:45:44Z</time>
      </trkpt>
      <trkpt lat="50.31311" lon="3.49229">
        <ele>26</ele>
        <time>2016-02-28T09:45:55Z</time>
      </trkpt>
      <trkpt lat="50.31295" lon="3.49221">
        <ele>27</ele>
        <time>2016-02-28T09:46:00Z</time>
      </trkpt>
      <trkpt lat="50.31276" lon="3.49217">
        <ele>25</ele>
        <time>2016-02-28T09:46:05Z</time>
      </trkpt>
      <trkpt lat="50.31266" lon="3.49204">
        <ele>27</ele>
        <time>2016-02-28T09:46:09Z</time>
      </trkpt>
      <trkpt lat="50.31243" lon="3.49191">
        <ele>28</ele>
        <time>2016-02-28T09:46:16Z</time>
      </trkpt>
      <trkpt lat="50.31224" lon="3.49183">
        <ele>26</ele>
        <time>2016-02-28T09:46:21Z</time>
      </trkpt>
      <trkpt lat="50.31211" lon="3.4917">
        <ele>26</ele>
        <time>2016-02-28T09:46:26Z</time>
      </trkpt>
      <trkpt lat="50.31181" lon="3.49161">
        <ele>27</ele>
        <time>2016-02-28T09:46:34Z</time>
      </trkpt>
      <trkpt lat="50.31165" lon="3.49162">
        <ele>31</ele>
        <time>2016-02-28T09:46:39Z</time>
      </trkpt>
      <trkpt lat="50.31148" lon="3.49166">
        <ele>28</ele>
        <time>2016-02-28T09:46:44Z</time>
      </trkpt>
      <trkpt lat="50.31136" lon="3.49147">
        <ele>25</ele>
        <time>2016-02-28T09:46:50Z</time>
      </trkpt>
      <trkpt lat="50.31119" lon="3.49105">
        <ele>27</ele>
        <time>2016-02-28T09:46:59Z</time>
      </trkpt>
      <trkpt lat="50.31108" lon="3.49061">
        <ele>26</ele>
        <time>2016-02-28T09:47:06Z</time>
      </trkpt>
      <trkpt lat="50.31105" lon="3.49048">
        <ele>26</ele>
        <time>2016-02-28T09:47:08Z</time>
      </trkpt>
      <trkpt lat="50.31094" lon="3.49014">
        <ele>32</ele>
        <time>2016-02-28T09:47:14Z</time>
      </trkpt>
      <trkpt lat="50.3108" lon="3.4897">
        <ele>29</ele>
        <time>2016-02-28T09:47:22Z</time>
      </trkpt>
      <trkpt lat="50.31069" lon="3.48933">
        <ele>33</ele>
        <time>2016-02-28T09:47:28Z</time>
      </trkpt>
      <trkpt lat="50.31063" lon="3.48908">
        <ele>33</ele>
        <time>2016-02-28T09:47:32Z</time>
      </trkpt>
      <trkpt lat="50.31047" lon="3.48855">
        <ele>31</ele>
        <time>2016-02-28T09:47:42Z</time>
      </trkpt>
      <trkpt lat="50.31043" lon="3.48846">
        <ele>32</ele>
        <time>2016-02-28T09:47:44Z</time>
      </trkpt>
      <trkpt lat="50.31032" lon="3.48817">
        <ele>31</ele>
        <time>2016-02-28T09:47:50Z</time>
      </trkpt>
      <trkpt lat="50.3102" lon="3.48787">
        <ele>30</ele>
        <time>2016-02-28T09:47:56Z</time>
      </trkpt>
      <trkpt lat="50.31003" lon="3.48752">
        <ele>33</ele>
        <time>2016-02-28T09:48:04Z</time>
      </trkpt>
      <trkpt lat="50.30992" lon="3.48731">
        <ele>35</ele>
        <time>2016-02-28T09:48:08Z</time>
      </trkpt>
      <trkpt lat="50.30969" lon="3.48678">
        <ele>29</ele>
        <time>2016-02-28T09:48:18Z</time>
      </trkpt>
      <trkpt lat="50.30954" lon="3.48651">
        <ele>32</ele>
        <time>2016-02-28T09:48:24Z</time>
      </trkpt>
      <trkpt lat="50.30941" lon="3.48623">
        <ele>30</ele>
        <time>2016-02-28T09:48:30Z</time>
      </trkpt>
      <trkpt lat="50.30937" lon="3.48614">
        <ele>30</ele>
        <time>2016-02-28T09:48:32Z</time>
      </trkpt>
      <trkpt lat="50.30922" lon="3.4858">
        <ele>32</ele>
        <time>2016-02-28T09:48:38Z</time>
      </trkpt>
      <trkpt lat="50.30912" lon="3.48546">
        <ele>30</ele>
        <time>2016-02-28T09:48:45Z</time>
      </trkpt>
      <trkpt lat="50.30903" lon="3.48526">
        <ele>32</ele>
        <time>2016-02-28T09:48:50Z</time>
      </trkpt>
      <trkpt lat="50.30887" lon="3.48483">
        <ele>31</ele>
        <time>2016-02-28T09:49:00Z</time>
      </trkpt>
      <trkpt lat="50.30883" lon="3.48471">
        <ele>34</ele>
        <time>2016-02-28T09:49:02Z</time>
      </trkpt>
      <trkpt lat="50.30865" lon="3.48455">
        <ele>30</ele>
        <time>2016-02-28T09:49:08Z</time>
      </trkpt>
      <trkpt lat="50.30844" lon="3.48426">
        <ele>27</ele>
        <time>2016-02-28T09:49:15Z</time>
      </trkpt>
      <trkpt lat="50.30818" lon="3.48373">
        <ele>28</ele>
        <time>2016-02-28T09:49:25Z</time>
      </trkpt>
      <trkpt lat="50.30814" lon="3.48362">
        <ele>29</ele>
        <time>2016-02-28T09:49:27Z</time>
      </trkpt>
      <trkpt lat="50.30798" lon="3.4831">
        <ele>28</ele>
        <time>2016-02-28T09:49:36Z</time>
      </trkpt>
      <trkpt lat="50.30784" lon="3.48265">
        <ele>28</ele>
        <time>2016-02-28T09:49:43Z</time>
      </trkpt>
      <trkpt lat="50.30783" lon="3.48259">
        <ele>26</ele>
        <time>2016-02-28T09:49:44Z</time>
      </trkpt>
      <trkpt lat="50.3077" lon="3.48216">
        <ele>29</ele>
        <time>2016-02-28T09:49:51Z</time>
      </trkpt>
      <trkpt lat="50.30756" lon="3.48182">
        <ele>32</ele>
        <time>2016-02-28T09:49:57Z</time>
      </trkpt>
      <trkpt lat="50.30746" lon="3.48154">
        <ele>33</ele>
        <time>2016-02-28T09:50:02Z</time>
      </trkpt>
      <trkpt lat="50.30727" lon="3.48117">
        <ele>35</ele>
        <time>2016-02-28T09:50:08Z</time>
      </trkpt>
      <trkpt lat="50.30712" lon="3.48083">
        <ele>37</ele>
        <time>2016-02-28T09:50:14Z</time>
      </trkpt>
      <trkpt lat="50.30696" lon="3.4805">
        <ele>36</ele>
        <time>2016-02-28T09:50:20Z</time>
      </trkpt>
      <trkpt lat="50.30666" lon="3.48002">
        <ele>38</ele>
        <time>2016-02-28T09:50:30Z</time>
      </trkpt>
      <trkpt lat="50.3065" lon="3.47975">
        <ele>36</ele>
        <time>2016-02-28T09:50:35Z</time>
      </trkpt>
      <trkpt lat="50.30642" lon="3.47962">
        <ele>36</ele>
        <time>2016-02-28T09:50:38Z</time>
      </trkpt>
      <trkpt lat="50.30619" lon="3.47941">
        <ele>35</ele>
        <time>2016-02-28T09:50:44Z</time>
      </trkpt>
      <trkpt lat="50.30591" lon="3.47931">
        <ele>35</ele>
        <time>2016-02-28T09:50:50Z</time>
      </trkpt>
      <trkpt lat="50.30565" lon="3.47924">
        <ele>34</ele>
        <time>2016-02-28T09:50:56Z</time>
      </trkpt>
      <trkpt lat="50.30534" lon="3.47915">
        <ele>32</ele>
        <time>2016-02-28T09:51:03Z</time>
      </trkpt>
      <trkpt lat="50.30499" lon="3.47913">
        <ele>31</ele>
        <time>2016-02-28T09:51:11Z</time>
      </trkpt>
      <trkpt lat="50.30485" lon="3.47923">
        <ele>31</ele>
        <time>2016-02-28T09:51:14Z</time>
      </trkpt>
      <trkpt lat="50.30459" lon="3.47935">
        <ele>34</ele>
        <time>2016-02-28T09:51:20Z</time>
      </trkpt>
      <trkpt lat="50.30428" lon="3.47952">
        <ele>33</ele>
        <time>2016-02-28T09:51:27Z</time>
      </trkpt>
      <trkpt lat="50.30397" lon="3.47986">
        <ele>33</ele>
        <time>2016-02-28T09:51:36Z</time>
      </trkpt>
      <trkpt lat="50.30381" lon="3.48013">
        <ele>36</ele>
        <time>2016-02-28T09:51:42Z</time>
      </trkpt>
      <trkpt lat="50.30377" lon="3.48023">
        <ele>36</ele>
        <time>2016-02-28T09:51:44Z</time>
      </trkpt>
      <trkpt lat="50.30364" lon="3.48045">
        <ele>37</ele>
        <time>2016-02-28T09:51:50Z</time>
      </trkpt>
      <trkpt lat="50.3035" lon="3.48069">
        <ele>37</ele>
        <time>2016-02-28T09:51:56Z</time>
      </trkpt>
      <trkpt lat="50.30335" lon="3.48091">
        <ele>36</ele>
        <time>2016-02-28T09:52:03Z</time>
      </trkpt>
      <trkpt lat="50.30327" lon="3.48102">
        <ele>37</ele>
        <time>2016-02-28T09:52:08Z</time>
      </trkpt>
      <trkpt lat="50.30314" lon="3.48124">
        <ele>36</ele>
        <time>2016-02-28T09:52:15Z</time>
      </trkpt>
      <trkpt lat="50.30309" lon="3.48158">
        <ele>37</ele>
        <time>2016-02-28T09:52:24Z</time>
      </trkpt>
      <trkpt lat="50.30306" lon="3.48175">
        <ele>41</ele>
        <time>2016-02-28T09:52:28Z</time>
      </trkpt>
      <trkpt lat="50.303" lon="3.48188">
        <ele>42</ele>
        <time>2016-02-28T09:52:32Z</time>
      </trkpt>
      <trkpt lat="50.30291" lon="3.48201">
        <ele>42</ele>
        <time>2016-02-28T09:52:38Z</time>
      </trkpt>
      <trkpt lat="50.30268" lon="3.48234">
        <ele>43</ele>
        <time>2016-02-28T09:52:49Z</time>
      </trkpt>
      <trkpt lat="50.30266" lon="3.48237">
        <ele>44</ele>
        <time>2016-02-28T09:52:50Z</time>
      </trkpt>
      <trkpt lat="50.30247" lon="3.48269">
        <ele>39</ele>
        <time>2016-02-28T09:53:00Z</time>
      </trkpt>
      <trkpt lat="50.30237" lon="3.48281">
        <ele>46</ele>
        <time>2016-02-28T09:53:05Z</time>
      </trkpt>
      <trkpt lat="50.30225" lon="3.48291">
        <ele>47</ele>
        <time>2016-02-28T09:53:10Z</time>
      </trkpt>
      <trkpt lat="50.30209" lon="3.4831">
        <ele>50</ele>
        <time>2016-02-28T09:53:19Z</time>
      </trkpt>
      <trkpt lat="50.30206" lon="3.48312">
        <ele>50</ele>
        <time>2016-02-28T09:53:21Z</time>
      </trkpt>
      <trkpt lat="50.30182" lon="3.48336">
        <ele>49</ele>
        <time>2016-02-28T09:53:31Z</time>
      </trkpt>
      <trkpt lat="50.3018" lon="3.48337">
        <ele>49</ele>
        <time>2016-02-28T09:53:32Z</time>
      </trkpt>
      <trkpt lat="50.30172" lon="3.48346">
        <ele>50</ele>
        <time>2016-02-28T09:53:38Z</time>
      </trkpt>
      <trkpt lat="50.3016" lon="3.48356">
        <ele>50</ele>
        <time>2016-02-28T09:53:44Z</time>
      </trkpt>
      <trkpt lat="50.30147" lon="3.48367">
        <ele>50</ele>
        <time>2016-02-28T09:53:50Z</time>
      </trkpt>
      <trkpt lat="50.30133" lon="3.48375">
        <ele>50</ele>
        <time>2016-02-28T09:53:56Z</time>
      </trkpt>
      <trkpt lat="50.30102" lon="3.48403">
        <ele>52</ele>
        <time>2016-02-28T09:54:07Z</time>
      </trkpt>
      <trkpt lat="50.30099" lon="3.48404">
        <ele>52</ele>
        <time>2016-02-28T09:54:08Z</time>
      </trkpt>
      <trkpt lat="50.30085" lon="3.48412">
        <ele>50</ele>
        <time>2016-02-28T09:54:14Z</time>
      </trkpt>
      <trkpt lat="50.3007" lon="3.48415">
        <ele>49</ele>
        <time>2016-02-28T09:54:20Z</time>
      </trkpt>
      <trkpt lat="50.30052" lon="3.48436">
        <ele>52</ele>
        <time>2016-02-28T09:54:26Z</time>
      </trkpt>
      <trkpt lat="50.30029" lon="3.48459">
        <ele>51</ele>
        <time>2016-02-28T09:54:34Z</time>
      </trkpt>
      <trkpt lat="50.30018" lon="3.48471">
        <ele>49</ele>
        <time>2016-02-28T09:54:38Z</time>
      </trkpt>
      <trkpt lat="50.3001" lon="3.48491">
        <ele>50</ele>
        <time>2016-02-28T09:54:44Z</time>
      </trkpt>
      <trkpt lat="50.30004" lon="3.48501">
        <ele>51</ele>
        <time>2016-02-28T09:54:50Z</time>
      </trkpt>
      <trkpt lat="50.29994" lon="3.48518">
        <ele>53</ele>
        <time>2016-02-28T09:55:01Z</time>
      </trkpt>
      <trkpt lat="50.29993" lon="3.4852">
        <ele>53</ele>
        <time>2016-02-28T09:55:02Z</time>
      </trkpt>
      <trkpt lat="50.29986" lon="3.48532">
        <ele>55</ele>
        <time>2016-02-28T09:55:08Z</time>
      </trkpt>
      <trkpt lat="50.2998" lon="3.48546">
        <ele>57</ele>
        <time>2016-02-28T09:55:14Z</time>
      </trkpt>
      <trkpt lat="50.29973" lon="3.48556">
        <ele>57</ele>
        <time>2016-02-28T09:55:20Z</time>
      </trkpt>
      <trkpt lat="50.29965" lon="3.48569">
        <ele>58</ele>
        <time>2016-02-28T09:55:26Z</time>
      </trkpt>
      <trkpt lat="50.29955" lon="3.48584">
        <ele>58</ele>
        <time>2016-02-28T09:55:32Z</time>
      </trkpt>
      <trkpt lat="50.29946" lon="3.486">
        <ele>60</ele>
        <time>2016-02-28T09:55:38Z</time>
      </trkpt>
      <trkpt lat="50.29938" lon="3.48618">
        <ele>61</ele>
        <time>2016-02-28T09:55:44Z</time>
      </trkpt>
      <trkpt lat="50.2993" lon="3.48637">
        <ele>62</ele>
        <time>2016-02-28T09:55:50Z</time>
      </trkpt>
      <trkpt lat="50.29923" lon="3.48655">
        <ele>62</ele>
        <time>2016-02-28T09:55:56Z</time>
      </trkpt>
      <trkpt lat="50.29915" lon="3.48685">
        <ele>63</ele>
        <time>2016-02-28T09:56:04Z</time>
      </trkpt>
      <trkpt lat="50.29912" lon="3.48699">
        <ele>63</ele>
        <time>2016-02-28T09:56:08Z</time>
      </trkpt>
      <trkpt lat="50.29908" lon="3.48717">
        <ele>62</ele>
        <time>2016-02-28T09:56:14Z</time>
      </trkpt>
      <trkpt lat="50.29902" lon="3.48738">
        <ele>63</ele>
        <time>2016-02-28T09:56:20Z</time>
      </trkpt>
      <trkpt lat="50.29897" lon="3.48755">
        <ele>61</ele>
        <time>2016-02-28T09:56:26Z</time>
      </trkpt>
      <trkpt lat="50.29888" lon="3.48777">
        <ele>62</ele>
        <time>2016-02-28T09:56:33Z</time>
      </trkpt>
      <trkpt lat="50.29879" lon="3.48802">
        <ele>63</ele>
        <time>2016-02-28T09:56:41Z</time>
      </trkpt>
      <trkpt lat="50.29876" lon="3.48809">
        <ele>63</ele>
        <time>2016-02-28T09:56:44Z</time>
      </trkpt>
      <trkpt lat="50.29868" lon="3.48827">
        <ele>61</ele>
        <time>2016-02-28T09:56:50Z</time>
      </trkpt>
      <trkpt lat="50.2986" lon="3.48846">
        <ele>61</ele>
        <time>2016-02-28T09:56:56Z</time>
      </trkpt>
      <trkpt lat="50.2985" lon="3.48867">
        <ele>62</ele>
        <time>2016-02-28T09:57:03Z</time>
      </trkpt>
      <trkpt lat="50.29841" lon="3.48878">
        <ele>63</ele>
        <time>2016-02-28T09:57:08Z</time>
      </trkpt>
      <trkpt lat="50.29831" lon="3.4889">
        <ele>63</ele>
        <time>2016-02-28T09:57:14Z</time>
      </trkpt>
      <trkpt lat="50.29819" lon="3.48907">
        <ele>63</ele>
        <time>2016-02-28T09:57:20Z</time>
      </trkpt>
      <trkpt lat="50.29807" lon="3.48923">
        <ele>63</ele>
        <time>2016-02-28T09:57:26Z</time>
      </trkpt>
      <trkpt lat="50.29797" lon="3.48937">
        <ele>62</ele>
        <time>2016-02-28T09:57:32Z</time>
      </trkpt>
      <trkpt lat="50.29785" lon="3.48952">
        <ele>63</ele>
        <time>2016-02-28T09:57:38Z</time>
      </trkpt>
      <trkpt lat="50.29775" lon="3.48965">
        <ele>65</ele>
        <time>2016-02-28T09:57:44Z</time>
      </trkpt>
      <trkpt lat="50.29765" lon="3.48975">
        <ele>65</ele>
        <time>2016-02-28T09:57:50Z</time>
      </trkpt>
      <trkpt lat="50.29754" lon="3.48988">
        <ele>65</ele>
        <time>2016-02-28T09:57:56Z</time>
      </trkpt>
      <trkpt lat="50.29743" lon="3.49">
        <ele>66</ele>
        <time>2016-02-28T09:58:02Z</time>
      </trkpt>
      <trkpt lat="50.29732" lon="3.49011">
        <ele>69</ele>
        <time>2016-02-28T09:58:08Z</time>
      </trkpt>
      <trkpt lat="50.29717" lon="3.49024">
        <ele>72</ele>
        <time>2016-02-28T09:58:14Z</time>
      </trkpt>
      <trkpt lat="50.29701" lon="3.49036">
        <ele>73</ele>
        <time>2016-02-28T09:58:20Z</time>
      </trkpt>
      <trkpt lat="50.29691" lon="3.49043">
        <ele>76</ele>
        <time>2016-02-28T09:58:26Z</time>
      </trkpt>
      <trkpt lat="50.29678" lon="3.4905">
        <ele>76</ele>
        <time>2016-02-28T09:58:32Z</time>
      </trkpt>
      <trkpt lat="50.29664" lon="3.49058">
        <ele>77</ele>
        <time>2016-02-28T09:58:38Z</time>
      </trkpt>
      <trkpt lat="50.29651" lon="3.49064">
        <ele>75</ele>
        <time>2016-02-28T09:58:44Z</time>
      </trkpt>
      <trkpt lat="50.29639" lon="3.49075">
        <ele>75</ele>
        <time>2016-02-28T09:58:50Z</time>
      </trkpt>
      <trkpt lat="50.29628" lon="3.49089">
        <ele>74</ele>
        <time>2016-02-28T09:58:56Z</time>
      </trkpt>
      <trkpt lat="50.29618" lon="3.49102">
        <ele>73</ele>
        <time>2016-02-28T09:59:02Z</time>
      </trkpt>
      <trkpt lat="50.29606" lon="3.49121">
        <ele>72</ele>
        <time>2016-02-28T09:59:09Z</time>
      </trkpt>
      <trkpt lat="50.29596" lon="3.49138">
        <ele>74</ele>
        <time>2016-02-28T09:59:15Z</time>
      </trkpt>
      <trkpt lat="50.29586" lon="3.49158">
        <ele>76</ele>
        <time>2016-02-28T09:59:22Z</time>
      </trkpt>
      <trkpt lat="50.29577" lon="3.4917">
        <ele>76</ele>
        <time>2016-02-28T09:59:31Z</time>
      </trkpt>
      <trkpt lat="50.29577" lon="3.49171">
        <ele>76</ele>
        <time>2016-02-28T09:59:32Z</time>
      </trkpt>
      <trkpt lat="50.29577" lon="3.49175">
        <ele>80</ele>
        <time>2016-02-28T09:59:40Z</time>
      </trkpt>
      <trkpt lat="50.29577" lon="3.49177">
        <ele>83</ele>
        <time>2016-02-28T09:59:48Z</time>
      </trkpt>
      <trkpt lat="50.29577" lon="3.49177">
        <ele>83</ele>
        <time>2016-02-28T09:59:50Z</time>
      </trkpt>
      <trkpt lat="50.29577" lon="3.49177">
        <ele>83</ele>
        <time>2016-02-28T09:59:59Z</time>
      </trkpt>
      <trkpt lat="50.29577" lon="3.49177">
        <ele>83</ele>
        <time>2016-02-28T10:00:02Z</time>
      </trkpt>
      <trkpt lat="50.29577" lon="3.49177">
        <ele>83</ele>
        <time>2016-02-28T10:00:08Z</time>
      </trkpt>
      <trkpt lat="50.29577" lon="3.49177">
        <ele>83</ele>
        <time>2016-02-28T10:00:14Z</time>
      </trkpt>
      <trkpt lat="50.29577" lon="3.49177">
        <ele>83</ele>
        <time>2016-02-28T10:00:19Z</time>
      </trkpt>
      <trkpt lat="50.29577" lon="3.49177">
        <ele>83</ele>
        <time>2016-02-28T10:00:25Z</time>
      </trkpt>
      <trkpt lat="50.29577" lon="3.49177">
        <ele>83</ele>
        <time>2016-02-28T10:00:32Z</time>
      </trkpt>
      <trkpt lat="50.29577" lon="3.49177">
        <ele>83</ele>
        <time>2016-02-28T10:00:37Z</time>
      </trkpt>
      <trkpt lat="50.29577" lon="3.49177">
        <ele>83</ele>
        <time>2016-02-28T10:00:43Z</time>
      </trkpt>
      <trkpt lat="50.29577" lon="3.49177">
        <ele>83</ele>
        <time>2016-02-28T10:00:53Z</time>
      </trkpt>
      <trkpt lat="50.29577" lon="3.49177">
        <ele>83</ele>
        <time>2016-02-28T10:00:55Z</time>
      </trkpt>
      <trkpt lat="50.29577" lon="3.49177">
        <ele>83</ele>
        <time>2016-02-28T10:01:01Z</time>
      </trkpt>
      <trkpt lat="50.29577" lon="3.49177">
        <ele>83</ele>
        <time>2016-02-28T10:01:07Z</time>
      </trkpt>
      <trkpt lat="50.29577" lon="3.49177">
        <ele>83</ele>
        <time>2016-02-28T10:01:13Z</time>
      </trkpt>
      <trkpt lat="50.29577" lon="3.49177">
        <ele>83</ele>
        <time>2016-02-28T10:01:19Z</time>
      </trkpt>
      <trkpt lat="50.29577" lon="3.49177">
        <ele>83</ele>
        <time>2016-02-28T10:01:25Z</time>
      </trkpt>
      <trkpt lat="50.29577" lon="3.49178">
        <ele>83</ele>
        <time>2016-02-28T10:01:31Z</time>
      </trkpt>
      <trkpt lat="50.29577" lon="3.49178">
        <ele>83</ele>
        <time>2016-02-28T10:01:37Z</time>
      </trkpt>
      <trkpt lat="50.29577" lon="3.49178">
        <ele>83</ele>
        <time>2016-02-28T10:01:43Z</time>
      </trkpt>
      <trkpt lat="50.29569" lon="3.49185">
        <ele>81</ele>
        <time>2016-02-28T10:01:49Z</time>
      </trkpt>
      <trkpt lat="50.29559" lon="3.49204">
        <ele>81</ele>
        <time>2016-02-28T10:01:55Z</time>
      </trkpt>
      <trkpt lat="50.29546" lon="3.49222">
        <ele>78</ele>
        <time>2016-02-28T10:02:01Z</time>
      </trkpt>
      <trkpt lat="50.29538" lon="3.49235">
        <ele>76</ele>
        <time>2016-02-28T10:02:07Z</time>
      </trkpt>
      <trkpt lat="50.29537" lon="3.49234">
        <ele>75</ele>
        <time>2016-02-28T10:02:13Z</time>
      </trkpt>
      <trkpt lat="50.29537" lon="3.49234">
        <ele>74</ele>
        <time>2016-02-28T10:02:19Z</time>
      </trkpt>
      <trkpt lat="50.29537" lon="3.49234">
        <ele>74</ele>
        <time>2016-02-28T10:02:25Z</time>
      </trkpt>
      <trkpt lat="50.29529" lon="3.49242">
        <ele>72</ele>
        <time>2016-02-28T10:02:31Z</time>
      </trkpt>
      <trkpt lat="50.29527" lon="3.49246">
        <ele>73</ele>
        <time>2016-02-28T10:02:37Z</time>
      </trkpt>
      <trkpt lat="50.29529" lon="3.4924">
        <ele>73</ele>
        <time>2016-02-28T10:02:43Z</time>
      </trkpt>
      <trkpt lat="50.29521" lon="3.49229">
        <ele>73</ele>
        <time>2016-02-28T10:02:49Z</time>
      </trkpt>
      <trkpt lat="50.29509" lon="3.49216">
        <ele>72</ele>
        <time>2016-02-28T10:02:55Z</time>
      </trkpt>
      <trkpt lat="50.29495" lon="3.49204">
        <ele>71</ele>
        <time>2016-02-28T10:03:01Z</time>
      </trkpt>
      <trkpt lat="50.29482" lon="3.49188">
        <ele>72</ele>
        <time>2016-02-28T10:03:07Z</time>
      </trkpt>
      <trkpt lat="50.29467" lon="3.49175">
        <ele>73</ele>
        <time>2016-02-28T10:03:13Z</time>
      </trkpt>
      <trkpt lat="50.29453" lon="3.49159">
        <ele>72</ele>
        <time>2016-02-28T10:03:19Z</time>
      </trkpt>
      <trkpt lat="50.29438" lon="3.49145">
        <ele>71</ele>
        <time>2016-02-28T10:03:25Z</time>
      </trkpt>
      <trkpt lat="50.29421" lon="3.49131">
        <ele>71</ele>
        <time>2016-02-28T10:03:31Z</time>
      </trkpt>
      <trkpt lat="50.29404" lon="3.49117">
        <ele>69</ele>
        <time>2016-02-28T10:03:37Z</time>
      </trkpt>
      <trkpt lat="50.29389" lon="3.49101">
        <ele>71</ele>
        <time>2016-02-28T10:03:43Z</time>
      </trkpt>
      <trkpt lat="50.29372" lon="3.49082">
        <ele>72</ele>
        <time>2016-02-28T10:03:49Z</time>
      </trkpt>
      <trkpt lat="50.29356" lon="3.49064">
        <ele>71</ele>
        <time>2016-02-28T10:03:55Z</time>
      </trkpt>
      <trkpt lat="50.29341" lon="3.49042">
        <ele>72</ele>
        <time>2016-02-28T10:04:01Z</time>
      </trkpt>
      <trkpt lat="50.29318" lon="3.49022">
        <ele>75</ele>
        <time>2016-02-28T10:04:09Z</time>
      </trkpt>
      <trkpt lat="50.29308" lon="3.49006">
        <ele>76</ele>
        <time>2016-02-28T10:04:13Z</time>
      </trkpt>
      <trkpt lat="50.29297" lon="3.48989">
        <ele>75</ele>
        <time>2016-02-28T10:04:18Z</time>
      </trkpt>
      <trkpt lat="50.29271" lon="3.48951">
        <ele>72</ele>
        <time>2016-02-28T10:04:27Z</time>
      </trkpt>
      <trkpt lat="50.29265" lon="3.48939">
        <ele>73</ele>
        <time>2016-02-28T10:04:30Z</time>
      </trkpt>
      <trkpt lat="50.29251" lon="3.48913">
        <ele>73</ele>
        <time>2016-02-28T10:04:36Z</time>
      </trkpt>
      <trkpt lat="50.29238" lon="3.48894">
        <ele>72</ele>
        <time>2016-02-28T10:04:42Z</time>
      </trkpt>
      <trkpt lat="50.29223" lon="3.48872">
        <ele>68</ele>
        <time>2016-02-28T10:04:48Z</time>
      </trkpt>
      <trkpt lat="50.29195" lon="3.48841">
        <ele>64</ele>
        <time>2016-02-28T10:04:58Z</time>
      </trkpt>
      <trkpt lat="50.29186" lon="3.48835">
        <ele>65</ele>
        <time>2016-02-28T10:05:01Z</time>
      </trkpt>
      <trkpt lat="50.29172" lon="3.48817">
        <ele>68</ele>
        <time>2016-02-28T10:05:06Z</time>
      </trkpt>
      <trkpt lat="50.29152" lon="3.48808">
        <ele>66</ele>
        <time>2016-02-28T10:05:12Z</time>
      </trkpt>
      <trkpt lat="50.29123" lon="3.48783">
        <ele>69</ele>
        <time>2016-02-28T10:05:21Z</time>
      </trkpt>
      <trkpt lat="50.29113" lon="3.48772">
        <ele>69</ele>
        <time>2016-02-28T10:05:24Z</time>
      </trkpt>
      <trkpt lat="50.29073" lon="3.48733">
        <ele>70</ele>
        <time>2016-02-28T10:05:34Z</time>
      </trkpt>
      <trkpt lat="50.29062" lon="3.48724">
        <ele>71</ele>
        <time>2016-02-28T10:05:36Z</time>
      </trkpt>
      <trkpt lat="50.29008" lon="3.48687">
        <ele>69</ele>
        <time>2016-02-28T10:05:46Z</time>
      </trkpt>
      <trkpt lat="50.28998" lon="3.48678">
        <ele>69</ele>
        <time>2016-02-28T10:05:48Z</time>
      </trkpt>
      <trkpt lat="50.28957" lon="3.48659">
        <ele>69</ele>
        <time>2016-02-28T10:05:55Z</time>
      </trkpt>
      <trkpt lat="50.2893" lon="3.48641">
        <ele>67</ele>
        <time>2016-02-28T10:06:00Z</time>
      </trkpt>
      <trkpt lat="50.28897" lon="3.48621">
        <ele>72</ele>
        <time>2016-02-28T10:06:06Z</time>
      </trkpt>
      <trkpt lat="50.28866" lon="3.48607">
        <ele>69</ele>
        <time>2016-02-28T10:06:12Z</time>
      </trkpt>
      <trkpt lat="50.28837" lon="3.48586">
        <ele>67</ele>
        <time>2016-02-28T10:06:18Z</time>
      </trkpt>
      <trkpt lat="50.28802" lon="3.48559">
        <ele>66</ele>
        <time>2016-02-28T10:06:25Z</time>
      </trkpt>
      <trkpt lat="50.28757" lon="3.48517">
        <ele>65</ele>
        <time>2016-02-28T10:06:34Z</time>
      </trkpt>
      <trkpt lat="50.28742" lon="3.48503">
        <ele>64</ele>
        <time>2016-02-28T10:06:37Z</time>
      </trkpt>
      <trkpt lat="50.2871" lon="3.48481">
        <ele>63</ele>
        <time>2016-02-28T10:06:43Z</time>
      </trkpt>
      <trkpt lat="50.28687" lon="3.48464">
        <ele>65</ele>
        <time>2016-02-28T10:06:48Z</time>
      </trkpt>
      <trkpt lat="50.28627" lon="3.4844">
        <ele>64</ele>
        <time>2016-02-28T10:06:58Z</time>
      </trkpt>
      <trkpt lat="50.28617" lon="3.48435">
        <ele>64</ele>
        <time>2016-02-28T10:07:00Z</time>
      </trkpt>
      <trkpt lat="50.28595" lon="3.48413">
        <ele>64</ele>
        <time>2016-02-28T10:07:06Z</time>
      </trkpt>
      <trkpt lat="50.28563" lon="3.48392">
        <ele>67</ele>
        <time>2016-02-28T10:07:13Z</time>
      </trkpt>
      <trkpt lat="50.28543" lon="3.48373">
        <ele>66</ele>
        <time>2016-02-28T10:07:18Z</time>
      </trkpt>
      <trkpt lat="50.28517" lon="3.4835">
        <ele>67</ele>
        <time>2016-02-28T10:07:24Z</time>
      </trkpt>
      <trkpt lat="50.28482" lon="3.48314">
        <ele>65</ele>
        <time>2016-02-28T10:07:32Z</time>
      </trkpt>
      <trkpt lat="50.28471" lon="3.48282">
        <ele>65</ele>
        <time>2016-02-28T10:07:36Z</time>
      </trkpt>
      <trkpt lat="50.28463" lon="3.48234">
        <ele>62</ele>
        <time>2016-02-28T10:07:42Z</time>
      </trkpt>
      <trkpt lat="50.28449" lon="3.48198">
        <ele>58</ele>
        <time>2016-02-28T10:07:48Z</time>
      </trkpt>
      <trkpt lat="50.28436" lon="3.48166">
        <ele>62</ele>
        <time>2016-02-28T10:07:54Z</time>
      </trkpt>
      <trkpt lat="50.28426" lon="3.48136">
        <ele>63</ele>
        <time>2016-02-28T10:08:00Z</time>
      </trkpt>
      <trkpt lat="50.28411" lon="3.48102">
        <ele>70</ele>
        <time>2016-02-28T10:08:09Z</time>
      </trkpt>
      <trkpt lat="50.28408" lon="3.4809">
        <ele>70</ele>
        <time>2016-02-28T10:08:12Z</time>
      </trkpt>
      <trkpt lat="50.28393" lon="3.48059">
        <ele>69</ele>
        <time>2016-02-28T10:08:20Z</time>
      </trkpt>
      <trkpt lat="50.28385" lon="3.48042">
        <ele>73</ele>
        <time>2016-02-28T10:08:24Z</time>
      </trkpt>
      <trkpt lat="50.2837" lon="3.48016">
        <ele>72</ele>
        <time>2016-02-28T10:08:30Z</time>
      </trkpt>
      <trkpt lat="50.28336" lon="3.47976">
        <ele>70</ele>
        <time>2016-02-28T10:08:40Z</time>
      </trkpt>
      <trkpt lat="50.28332" lon="3.47972">
        <ele>70</ele>
        <time>2016-02-28T10:08:41Z</time>
      </trkpt>
      <trkpt lat="50.28313" lon="3.47947">
        <ele>72</ele>
        <time>2016-02-28T10:08:47Z</time>
      </trkpt>
      <trkpt lat="50.28294" lon="3.47927">
        <ele>73</ele>
        <time>2016-02-28T10:08:53Z</time>
      </trkpt>
      <trkpt lat="50.28272" lon="3.47911">
        <ele>74</ele>
        <time>2016-02-28T10:08:59Z</time>
      </trkpt>
      <trkpt lat="50.28254" lon="3.47895">
        <ele>77</ele>
        <time>2016-02-28T10:09:05Z</time>
      </trkpt>
      <trkpt lat="50.2822" lon="3.47861">
        <ele>75</ele>
        <time>2016-02-28T10:09:16Z</time>
      </trkpt>
      <trkpt lat="50.28217" lon="3.47859">
        <ele>76</ele>
        <time>2016-02-28T10:09:17Z</time>
      </trkpt>
      <trkpt lat="50.28203" lon="3.47849">
        <ele>74</ele>
        <time>2016-02-28T10:09:26Z</time>
      </trkpt>
      <trkpt lat="50.28203" lon="3.47849">
        <ele>73</ele>
        <time>2016-02-28T10:09:29Z</time>
      </trkpt>
      <trkpt lat="50.28185" lon="3.47839">
        <ele>73</ele>
        <time>2016-02-28T10:09:38Z</time>
      </trkpt>
      <trkpt lat="50.28176" lon="3.47833">
        <ele>72</ele>
        <time>2016-02-28T10:09:41Z</time>
      </trkpt>
      <trkpt lat="50.28153" lon="3.47821">
        <ele>72</ele>
        <time>2016-02-28T10:09:47Z</time>
      </trkpt>
      <trkpt lat="50.28124" lon="3.47814">
        <ele>71</ele>
        <time>2016-02-28T10:09:53Z</time>
      </trkpt>
      <trkpt lat="50.28092" lon="3.47813">
        <ele>71</ele>
        <time>2016-02-28T10:09:59Z</time>
      </trkpt>
      <trkpt lat="50.28048" lon="3.47819">
        <ele>70</ele>
        <time>2016-02-28T10:10:06Z</time>
      </trkpt>
      <trkpt lat="50.2754" lon="3.47383">
        <ele>50</ele>
        <time>2016-02-28T10:11:40Z</time>
      </trkpt>
      <trkpt lat="50.27539" lon="3.47379">
        <ele>51</ele>
        <time>2016-02-28T10:11:45Z</time>
      </trkpt>
      <trkpt lat="50.27536" lon="3.47375">
        <ele>51</ele>
        <time>2016-02-28T10:11:47Z</time>
      </trkpt>
      <trkpt lat="50.27513" lon="3.47345">
        <ele>48</ele>
        <time>2016-02-28T10:11:55Z</time>
      </trkpt>
      <trkpt lat="50.27496" lon="3.4733">
        <ele>45</ele>
        <time>2016-02-28T10:11:59Z</time>
      </trkpt>
      <trkpt lat="50.27467" lon="3.47295">
        <ele>42</ele>
        <time>2016-02-28T10:12:05Z</time>
      </trkpt>
      <trkpt lat="50.27102" lon="3.4683">
        <ele>25</ele>
        <time>2016-02-28T10:13:21Z</time>
      </trkpt>
      <trkpt lat="50.271" lon="3.46824">
        <ele>25</ele>
        <time>2016-02-28T10:13:22Z</time>
      </trkpt>
      <trkpt lat="50.27089" lon="3.46795">
        <ele>25</ele>
        <time>2016-02-28T10:13:28Z</time>
      </trkpt>
      <trkpt lat="50.27061" lon="3.46768">
        <ele>24</ele>
        <time>2016-02-28T10:13:37Z</time>
      </trkpt>
      <trkpt lat="50.27042" lon="3.46765">
        <ele>23</ele>
        <time>2016-02-28T10:13:42Z</time>
      </trkpt>
      <trkpt lat="50.27038" lon="3.46729">
        <ele>23</ele>
        <time>2016-02-28T10:13:47Z</time>
      </trkpt>
      <trkpt lat="50.27032" lon="3.46685">
        <ele>25</ele>
        <time>2016-02-28T10:13:54Z</time>
      </trkpt>
      <trkpt lat="50.27028" lon="3.46665">
        <ele>25</ele>
        <time>2016-02-28T10:13:58Z</time>
      </trkpt>
      <trkpt lat="50.27011" lon="3.46613">
        <ele>30</ele>
        <time>2016-02-28T10:14:08Z</time>
      </trkpt>
      <trkpt lat="50.26999" lon="3.46586">
        <ele>24</ele>
        <time>2016-02-28T10:14:15Z</time>
      </trkpt>
      <trkpt lat="50.26997" lon="3.46583">
        <ele>24</ele>
        <time>2016-02-28T10:14:16Z</time>
      </trkpt>
      <trkpt lat="50.26986" lon="3.4656">
        <ele>27</ele>
        <time>2016-02-28T10:14:22Z</time>
      </trkpt>
      <trkpt lat="50.26976" lon="3.46548">
        <ele>25</ele>
        <time>2016-02-28T10:14:28Z</time>
      </trkpt>
      <trkpt lat="50.26965" lon="3.46534">
        <ele>24</ele>
        <time>2016-02-28T10:14:34Z</time>
      </trkpt>
      <trkpt lat="50.26953" lon="3.46514">
        <ele>26</ele>
        <time>2016-02-28T10:14:40Z</time>
      </trkpt>
      <trkpt lat="50.2694" lon="3.46496">
        <ele>23</ele>
        <time>2016-02-28T10:14:46Z</time>
      </trkpt>
      <trkpt lat="50.26923" lon="3.46474">
        <ele>25</ele>
        <time>2016-02-28T10:14:52Z</time>
      </trkpt>
      <trkpt lat="50.26908" lon="3.46439">
        <ele>26</ele>
        <time>2016-02-28T10:15:01Z</time>
      </trkpt>
      <trkpt lat="50.26903" lon="3.46436">
        <ele>29</ele>
        <time>2016-02-28T10:15:08Z</time>
      </trkpt>
      <trkpt lat="50.26902" lon="3.46437">
        <ele>30</ele>
        <time>2016-02-28T10:15:14Z</time>
      </trkpt>
      <trkpt lat="50.26902" lon="3.46436">
        <ele>30</ele>
        <time>2016-02-28T10:15:16Z</time>
      </trkpt>
      <trkpt lat="50.26902" lon="3.46436">
        <ele>30</ele>
        <time>2016-02-28T10:15:22Z</time>
      </trkpt>
      <trkpt lat="50.26902" lon="3.46436">
        <ele>31</ele>
        <time>2016-02-28T10:15:28Z</time>
      </trkpt>
      <trkpt lat="50.26902" lon="3.46436">
        <ele>31</ele>
        <time>2016-02-28T10:15:34Z</time>
      </trkpt>
      <trkpt lat="50.26902" lon="3.46436">
        <ele>31</ele>
        <time>2016-02-28T10:15:44Z</time>
      </trkpt>
      <trkpt lat="50.26902" lon="3.46436">
        <ele>31</ele>
        <time>2016-02-28T10:15:46Z</time>
      </trkpt>
      <trkpt lat="50.26901" lon="3.46436">
        <ele>31</ele>
        <time>2016-02-28T10:15:52Z</time>
      </trkpt>
      <trkpt lat="50.26901" lon="3.46432">
        <ele>33</ele>
        <time>2016-02-28T10:15:58Z</time>
      </trkpt>
      <trkpt lat="50.26902" lon="3.46432">
        <ele>35</ele>
        <time>2016-02-28T10:16:04Z</time>
      </trkpt>
      <trkpt lat="50.26902" lon="3.46432">
        <ele>36</ele>
        <time>2016-02-28T10:16:10Z</time>
      </trkpt>
      <trkpt lat="50.26902" lon="3.46432">
        <ele>36</ele>
        <time>2016-02-28T10:16:16Z</time>
      </trkpt>
      <trkpt lat="50.26902" lon="3.46432">
        <ele>36</ele>
        <time>2016-02-28T10:16:22Z</time>
      </trkpt>
      <trkpt lat="50.26902" lon="3.46432">
        <ele>36</ele>
        <time>2016-02-28T10:16:28Z</time>
      </trkpt>
      <trkpt lat="50.26902" lon="3.46432">
        <ele>36</ele>
        <time>2016-02-28T10:16:34Z</time>
      </trkpt>
      <trkpt lat="50.26902" lon="3.46432">
        <ele>36</ele>
        <time>2016-02-28T10:16:40Z</time>
      </trkpt>
      <trkpt lat="50.26902" lon="3.46432">
        <ele>36</ele>
        <time>2016-02-28T10:16:46Z</time>
      </trkpt>
      <trkpt lat="50.26902" lon="3.46432">
        <ele>36</ele>
        <time>2016-02-28T10:16:52Z</time>
      </trkpt>
      <trkpt lat="50.26902" lon="3.46432">
        <ele>36</ele>
        <time>2016-02-28T10:16:58Z</time>
      </trkpt>
      <trkpt lat="50.26902" lon="3.46432">
        <ele>36</ele>
        <time>2016-02-28T10:17:04Z</time>
      </trkpt>
    </trkseg>
  </trk>
  <trk>
    <name><![CDATA[Sequence 2]]></name>
    <trkseg>
      <trkpt lat="50.26902" lon="3.46432">
        <ele>36</ele>
        <time>2016-02-28T10:18:00Z</time>
      </trkpt>
      <trkpt lat="50.26902" lon="3.46432">
        <ele>36</ele>
        <time>2016-02-28T10:18:06Z</time>
      </trkpt>
      <trkpt lat="50.26902" lon="3.46432">
        <ele>36</ele>
        <time>2016-02-28T10:18:17Z</time>
      </trkpt>
      <trkpt lat="50.26902" lon="3.46432">
        <ele>36</ele>
        <time>2016-02-28T10:18:18Z</time>
      </trkpt>
      <trkpt lat="50.26902" lon="3.46426">
        <ele>36</ele>
        <time>2016-02-28T10:18:24Z</time>
      </trkpt>
      <trkpt lat="50.26914" lon="3.46396">
        <ele>41</ele>
        <time>2016-02-28T10:18:35Z</time>
      </trkpt>
      <trkpt lat="50.26922" lon="3.46376">
        <ele>43</ele>
        <time>2016-02-28T10:18:40Z</time>
      </trkpt>
      <trkpt lat="50.26926" lon="3.46371">
        <ele>44</ele>
        <time>2016-02-28T10:18:42Z</time>
      </trkpt>
      <trkpt lat="50.26943" lon="3.46348">
        <ele>47</ele>
        <time>2016-02-28T10:18:49Z</time>
      </trkpt>
      <trkpt lat="50.26955" lon="3.4633">
        <ele>49</ele>
        <time>2016-02-28T10:18:54Z</time>
      </trkpt>
      <trkpt lat="50.2697" lon="3.46312">
        <ele>51</ele>
        <time>2016-02-28T10:19:00Z</time>
      </trkpt>
      <trkpt lat="50.26995" lon="3.46285">
        <ele>50</ele>
        <time>2016-02-28T10:19:10Z</time>
      </trkpt>
      <trkpt lat="50.27001" lon="3.46281">
        <ele>51</ele>
        <time>2016-02-28T10:19:12Z</time>
      </trkpt>
      <trkpt lat="50.27017" lon="3.46264">
        <ele>53</ele>
        <time>2016-02-28T10:19:18Z</time>
      </trkpt>
      <trkpt lat="50.27035" lon="3.46228">
        <ele>53</ele>
        <time>2016-02-28T10:19:25Z</time>
      </trkpt>
      <trkpt lat="50.27051" lon="3.46195">
        <ele>52</ele>
        <time>2016-02-28T10:19:33Z</time>
      </trkpt>
      <trkpt lat="50.27057" lon="3.46184">
        <ele>53</ele>
        <time>2016-02-28T10:19:36Z</time>
      </trkpt>
      <trkpt lat="50.27072" lon="3.46137">
        <ele>50</ele>
        <time>2016-02-28T10:19:45Z</time>
      </trkpt>
      <trkpt lat="50.27076" lon="3.46122">
        <ele>50</ele>
        <time>2016-02-28T10:19:48Z</time>
      </trkpt>
      <trkpt lat="50.27089" lon="3.46095">
        <ele>46</ele>
        <time>2016-02-28T10:19:54Z</time>
      </trkpt>
      <trkpt lat="50.271" lon="3.46068">
        <ele>44</ele>
        <time>2016-02-28T10:20:00Z</time>
      </trkpt>
      <trkpt lat="50.27116" lon="3.46024">
        <ele>40</ele>
        <time>2016-02-28T10:20:09Z</time>
      </trkpt>
      <trkpt lat="50.27123" lon="3.4601">
        <ele>44</ele>
        <time>2016-02-28T10:20:12Z</time>
      </trkpt>
      <trkpt lat="50.27135" lon="3.45959">
        <ele>46</ele>
        <time>2016-02-28T10:20:20Z</time>
      </trkpt>
      <trkpt lat="50.27141" lon="3.45935">
        <ele>46</ele>
        <time>2016-02-28T10:20:24Z</time>
      </trkpt>
      <trkpt lat="50.27149" lon="3.45895">
        <ele>48</ele>
        <time>2016-02-28T10:20:30Z</time>
      </trkpt>
      <trkpt lat="50.27161" lon="3.45838">
        <ele>48</ele>
        <time>2016-02-28T10:20:38Z</time>
      </trkpt>
      <trkpt lat="50.27168" lon="3.45805">
        <ele>47</ele>
        <time>2016-02-28T10:20:42Z</time>
      </trkpt>
      <trkpt lat="50.2718" lon="3.45764">
        <ele>42</ele>
        <time>2016-02-28T10:20:48Z</time>
      </trkpt>
      <trkpt lat="50.2719" lon="3.45714">
        <ele>40</ele>
        <time>2016-02-28T10:20:54Z</time>
      </trkpt>
      <trkpt lat="50.2721" lon="3.45623">
        <ele>38</ele>
        <time>2016-02-28T10:21:04Z</time>
      </trkpt>
      <trkpt lat="50.2722" lon="3.45581">
        <ele>38</ele>
        <time>2016-02-28T10:21:09Z</time>
      </trkpt>
      <trkpt lat="50.27227" lon="3.45561">
        <ele>38</ele>
        <time>2016-02-28T10:21:12Z</time>
      </trkpt>
      <trkpt lat="50.27243" lon="3.45522">
        <ele>39</ele>
        <time>2016-02-28T10:21:18Z</time>
      </trkpt>
      <trkpt lat="50.27279" lon="3.45475">
        <ele>42</ele>
        <time>2016-02-28T10:21:29Z</time>
      </trkpt>
      <trkpt lat="50.27283" lon="3.4547">
        <ele>42</ele>
        <time>2016-02-28T10:21:30Z</time>
      </trkpt>
      <trkpt lat="50.27313" lon="3.45454">
        <ele>44</ele>
        <time>2016-02-28T10:21:37Z</time>
      </trkpt>
      <trkpt lat="50.27339" lon="3.45445">
        <ele>45</ele>
        <time>2016-02-28T10:21:42Z</time>
      </trkpt>
      <trkpt lat="50.27381" lon="3.45451">
        <ele>44</ele>
        <time>2016-02-28T10:21:51Z</time>
      </trkpt>
      <trkpt lat="50.27396" lon="3.45451">
        <ele>44</ele>
        <time>2016-02-28T10:21:54Z</time>
      </trkpt>
      <trkpt lat="50.27424" lon="3.45447">
        <ele>44</ele>
        <time>2016-02-28T10:22:00Z</time>
      </trkpt>
      <trkpt lat="50.27464" lon="3.4543">
        <ele>43</ele>
        <time>2016-02-28T10:22:09Z</time>
      </trkpt>
      <trkpt lat="50.27477" lon="3.45423">
        <ele>43</ele>
        <time>2016-02-28T10:22:12Z</time>
      </trkpt>
      <trkpt lat="50.27522" lon="3.45411">
        <ele>42</ele>
        <time>2016-02-28T10:22:22Z</time>
      </trkpt>
      <trkpt lat="50.27531" lon="3.45406">
        <ele>43</ele>
        <time>2016-02-28T10:22:24Z</time>
      </trkpt>
      <trkpt lat="50.27582" lon="3.45385">
        <ele>43</ele>
        <time>2016-02-28T10:22:35Z</time>
      </trkpt>
      <trkpt lat="50.27599" lon="3.45385">
        <ele>40</ele>
        <time>2016-02-28T10:22:41Z</time>
      </trkpt>
      <trkpt lat="50.27598" lon="3.45385">
        <ele>40</ele>
        <time>2016-02-28T10:22:42Z</time>
      </trkpt>
      <trkpt lat="50.27591" lon="3.45386">
        <ele>39</ele>
        <time>2016-02-28T10:22:48Z</time>
      </trkpt>
      <trkpt lat="50.27598" lon="3.45383">
        <ele>40</ele>
        <time>2016-02-28T10:22:54Z</time>
      </trkpt>
      <trkpt lat="50.27623" lon="3.45377">
        <ele>39</ele>
        <time>2016-02-28T10:23:00Z</time>
      </trkpt>
      <trkpt lat="50.27656" lon="3.45368">
        <ele>38</ele>
        <time>2016-02-28T10:23:06Z</time>
      </trkpt>
      <trkpt lat="50.2769" lon="3.45358">
        <ele>38</ele>
        <time>2016-02-28T10:23:12Z</time>
      </trkpt>
      <trkpt lat="50.2772" lon="3.45352">
        <ele>37</ele>
        <time>2016-02-28T10:23:18Z</time>
      </trkpt>
      <trkpt lat="50.27744" lon="3.45352">
        <ele>37</ele>
        <time>2016-02-28T10:23:24Z</time>
      </trkpt>
      <trkpt lat="50.2776" lon="3.4536">
        <ele>36</ele>
        <time>2016-02-28T10:23:30Z</time>
      </trkpt>
      <trkpt lat="50.27777" lon="3.45366">
        <ele>35</ele>
        <time>2016-02-28T10:23:36Z</time>
      </trkpt>
      <trkpt lat="50.27796" lon="3.45371">
        <ele>35</ele>
        <time>2016-02-28T10:23:42Z</time>
      </trkpt>
      <trkpt lat="50.27819" lon="3.45372">
        <ele>35</ele>
        <time>2016-02-28T10:23:48Z</time>
      </trkpt>
      <trkpt lat="50.27842" lon="3.45365">
        <ele>35</ele>
        <time>2016-02-28T10:23:54Z</time>
      </trkpt>
      <trkpt lat="50.27865" lon="3.45352">
        <ele>34</ele>
        <time>2016-02-28T10:24:00Z</time>
      </trkpt>
      <trkpt lat="50.27886" lon="3.45339">
        <ele>35</ele>
        <time>2016-02-28T10:24:06Z</time>
      </trkpt>
      <trkpt lat="50.27908" lon="3.45322">
        <ele>35</ele>
        <time>2016-02-28T10:24:12Z</time>
      </trkpt>
      <trkpt lat="50.27931" lon="3.45304">
        <ele>35</ele>
        <time>2016-02-28T10:24:18Z</time>
      </trkpt>
      <trkpt lat="50.27955" lon="3.45286">
        <ele>36</ele>
        <time>2016-02-28T10:24:24Z</time>
      </trkpt>
      <trkpt lat="50.27979" lon="3.45268">
        <ele>36</ele>
        <time>2016-02-28T10:24:30Z</time>
      </trkpt>
      <trkpt lat="50.28011" lon="3.45249">
        <ele>35</ele>
        <time>2016-02-28T10:24:38Z</time>
      </trkpt>
      <trkpt lat="50.28028" lon="3.45248">
        <ele>36</ele>
        <time>2016-02-28T10:24:42Z</time>
      </trkpt>
      <trkpt lat="50.28052" lon="3.45236">
        <ele>35</ele>
        <time>2016-02-28T10:24:48Z</time>
      </trkpt>
      <trkpt lat="50.28077" lon="3.45227">
        <ele>37</ele>
        <time>2016-02-28T10:24:54Z</time>
      </trkpt>
      <trkpt lat="50.28101" lon="3.45216">
        <ele>35</ele>
        <time>2016-02-28T10:25:00Z</time>
      </trkpt>
      <trkpt lat="50.28126" lon="3.45202">
        <ele>37</ele>
        <time>2016-02-28T10:25:06Z</time>
      </trkpt>
      <trkpt lat="50.28151" lon="3.45199">
        <ele>35</ele>
        <time>2016-02-28T10:25:12Z</time>
      </trkpt>
      <trkpt lat="50.28173" lon="3.45198">
        <ele>32</ele>
        <time>2016-02-28T10:25:18Z</time>
      </trkpt>
      <trkpt lat="50.28198" lon="3.45193">
        <ele>32</ele>
        <time>2016-02-28T10:25:24Z</time>
      </trkpt>
      <trkpt lat="50.28221" lon="3.45181">
        <ele>32</ele>
        <time>2016-02-28T10:25:30Z</time>
      </trkpt>
      <trkpt lat="50.2824" lon="3.45172">
        <ele>33</ele>
        <time>2016-02-28T10:25:36Z</time>
      </trkpt>
      <trkpt lat="50.2827" lon="3.45158">
        <ele>33</ele>
        <time>2016-02-28T10:25:46Z</time>
      </trkpt>
      <trkpt lat="50.28278" lon="3.45154">
        <ele>34</ele>
        <time>2016-02-28T10:25:48Z</time>
      </trkpt>
      <trkpt lat="50.28297" lon="3.45137">
        <ele>33</ele>
        <time>2016-02-28T10:25:54Z</time>
      </trkpt>
      <trkpt lat="50.28329" lon="3.45099">
        <ele>32</ele>
        <time>2016-02-28T10:26:04Z</time>
      </trkpt>
      <trkpt lat="50.28336" lon="3.4509">
        <ele>34</ele>
        <time>2016-02-28T10:26:06Z</time>
      </trkpt>
      <trkpt lat="50.28355" lon="3.4507">
        <ele>34</ele>
        <time>2016-02-28T10:26:12Z</time>
      </trkpt>
      <trkpt lat="50.28382" lon="3.45048">
        <ele>34</ele>
        <time>2016-02-28T10:26:21Z</time>
      </trkpt>
      <trkpt lat="50.28391" lon="3.45039">
        <ele>34</ele>
        <time>2016-02-28T10:26:24Z</time>
      </trkpt>
      <trkpt lat="50.28407" lon="3.45022">
        <ele>34</ele>
        <time>2016-02-28T10:26:30Z</time>
      </trkpt>
      <trkpt lat="50.28425" lon="3.45008">
        <ele>33</ele>
        <time>2016-02-28T10:26:36Z</time>
      </trkpt>
      <trkpt lat="50.28443" lon="3.44989">
        <ele>34</ele>
        <time>2016-02-28T10:26:42Z</time>
      </trkpt>
      <trkpt lat="50.28464" lon="3.44967">
        <ele>35</ele>
        <time>2016-02-28T10:26:48Z</time>
      </trkpt>
      <trkpt lat="50.28486" lon="3.44946">
        <ele>36</ele>
        <time>2016-02-28T10:26:54Z</time>
      </trkpt>
      <trkpt lat="50.28507" lon="3.44928">
        <ele>38</ele>
        <time>2016-02-28T10:27:00Z</time>
      </trkpt>
      <trkpt lat="50.28521" lon="3.44937">
        <ele>36</ele>
        <time>2016-02-28T10:27:06Z</time>
      </trkpt>
      <trkpt lat="50.28523" lon="3.44941">
        <ele>37</ele>
        <time>2016-02-28T10:27:12Z</time>
      </trkpt>
      <trkpt lat="50.28539" lon="3.44942">
        <ele>37</ele>
        <time>2016-02-28T10:27:18Z</time>
      </trkpt>
      <trkpt lat="50.28558" lon="3.44932">
        <ele>34</ele>
        <time>2016-02-28T10:27:24Z</time>
      </trkpt>
      <trkpt lat="50.2858" lon="3.44919">
        <ele>34</ele>
        <time>2016-02-28T10:27:30Z</time>
      </trkpt>
      <trkpt lat="50.28599" lon="3.44911">
        <ele>34</ele>
        <time>2016-02-28T10:27:36Z</time>
      </trkpt>
      <trkpt lat="50.28616" lon="3.44904">
        <ele>33</ele>
        <time>2016-02-28T10:27:42Z</time>
      </trkpt>
      <trkpt lat="50.28631" lon="3.449">
        <ele>30</ele>
        <time>2016-02-28T10:27:48Z</time>
      </trkpt>
      <trkpt lat="50.28649" lon="3.44898">
        <ele>29</ele>
        <time>2016-02-28T10:27:54Z</time>
      </trkpt>
      <trkpt lat="50.28667" lon="3.44889">
        <ele>28</ele>
        <time>2016-02-28T10:28:00Z</time>
      </trkpt>
      <trkpt lat="50.28687" lon="3.44884">
        <ele>31</ele>
        <time>2016-02-28T10:28:07Z</time>
      </trkpt>
      <trkpt lat="50.28701" lon="3.44882">
        <ele>32</ele>
        <time>2016-02-28T10:28:12Z</time>
      </trkpt>
      <trkpt lat="50.28719" lon="3.44878">
        <ele>33</ele>
        <time>2016-02-28T10:28:18Z</time>
      </trkpt>
      <trkpt lat="50.28759" lon="3.44868">
        <ele>35</ele>
        <time>2016-02-28T10:28:29Z</time>
      </trkpt>
      <trkpt lat="50.28762" lon="3.44867">
        <ele>36</ele>
        <time>2016-02-28T10:28:30Z</time>
      </trkpt>
      <trkpt lat="50.28778" lon="3.44863">
        <ele>36</ele>
        <time>2016-02-28T10:28:36Z</time>
      </trkpt>
      <trkpt lat="50.28792" lon="3.44861">
        <ele>36</ele>
        <time>2016-02-28T10:28:42Z</time>
      </trkpt>
      <trkpt lat="50.28809" lon="3.44849">
        <ele>37</ele>
        <time>2016-02-28T10:28:48Z</time>
      </trkpt>
      <trkpt lat="50.28829" lon="3.44838">
        <ele>37</ele>
        <time>2016-02-28T10:28:54Z</time>
      </trkpt>
      <trkpt lat="50.28849" lon="3.44826">
        <ele>36</ele>
        <time>2016-02-28T10:29:00Z</time>
      </trkpt>
      <trkpt lat="50.28873" lon="3.4481">
        <ele>36</ele>
        <time>2016-02-28T10:29:06Z</time>
      </trkpt>
      <trkpt lat="50.28902" lon="3.4481">
        <ele>37</ele>
        <time>2016-02-28T10:29:12Z</time>
      </trkpt>
      <trkpt lat="50.28931" lon="3.4481">
        <ele>39</ele>
        <time>2016-02-28T10:29:18Z</time>
      </trkpt>
      <trkpt lat="50.28956" lon="3.44818">
        <ele>38</ele>
        <time>2016-02-28T10:29:24Z</time>
      </trkpt>
      <trkpt lat="50.28981" lon="3.44824">
        <ele>38</ele>
        <time>2016-02-28T10:29:30Z</time>
      </trkpt>
      <trkpt lat="50.29016" lon="3.44832">
        <ele>39</ele>
        <time>2016-02-28T10:29:38Z</time>
      </trkpt>
      <trkpt lat="50.29032" lon="3.44837">
        <ele>39</ele>
        <time>2016-02-28T10:29:42Z</time>
      </trkpt>
      <trkpt lat="50.29056" lon="3.44845">
        <ele>38</ele>
        <time>2016-02-28T10:29:48Z</time>
      </trkpt>
      <trkpt lat="50.29079" lon="3.44846">
        <ele>40</ele>
        <time>2016-02-28T10:29:54Z</time>
      </trkpt>
      <trkpt lat="50.29099" lon="3.44847">
        <ele>39</ele>
        <time>2016-02-28T10:30:00Z</time>
      </trkpt>
      <trkpt lat="50.29118" lon="3.44848">
        <ele>39</ele>
        <time>2016-02-28T10:30:06Z</time>
      </trkpt>
      <trkpt lat="50.29135" lon="3.44848">
        <ele>38</ele>
        <time>2016-02-28T10:30:12Z</time>
      </trkpt>
      <trkpt lat="50.2915" lon="3.44849">
        <ele>38</ele>
        <time>2016-02-28T10:30:18Z</time>
      </trkpt>
      <trkpt lat="50.29166" lon="3.44847">
        <ele>36</ele>
        <time>2016-02-28T10:30:27Z</time>
      </trkpt>
      <trkpt lat="50.29168" lon="3.44848">
        <ele>35</ele>
        <time>2016-02-28T10:30:30Z</time>
      </trkpt>
      <trkpt lat="50.29174" lon="3.44848">
        <ele>36</ele>
        <time>2016-02-28T10:30:36Z</time>
      </trkpt>
      <trkpt lat="50.29173" lon="3.44848">
        <ele>36</ele>
        <time>2016-02-28T10:30:42Z</time>
      </trkpt>
      <trkpt lat="50.29173" lon="3.44849">
        <ele>35</ele>
        <time>2016-02-28T10:30:48Z</time>
      </trkpt>
      <trkpt lat="50.29186" lon="3.44851">
        <ele>34</ele>
        <time>2016-02-28T10:30:54Z</time>
      </trkpt>
      <trkpt lat="50.29205" lon="3.44854">
        <ele>32</ele>
        <time>2016-02-28T10:31:00Z</time>
      </trkpt>
      <trkpt lat="50.29229" lon="3.44854">
        <ele>33</ele>
        <time>2016-02-28T10:31:06Z</time>
      </trkpt>
      <trkpt lat="50.2925" lon="3.44852">
        <ele>31</ele>
        <time>2016-02-28T10:31:12Z</time>
      </trkpt>
      <trkpt lat="50.29275" lon="3.44834">
        <ele>30</ele>
        <time>2016-02-28T10:31:19Z</time>
      </trkpt>
      <trkpt lat="50.29291" lon="3.44819">
        <ele>26</ele>
        <time>2016-02-28T10:31:24Z</time>
      </trkpt>
      <trkpt lat="50.29315" lon="3.44811">
        <ele>26</ele>
        <time>2016-02-28T10:31:30Z</time>
      </trkpt>
      <trkpt lat="50.29346" lon="3.44798">
        <ele>25</ele>
        <time>2016-02-28T10:31:39Z</time>
      </trkpt>
      <trkpt lat="50.2936" lon="3.44791">
        <ele>24</ele>
        <time>2016-02-28T10:31:43Z</time>
      </trkpt>
      <trkpt lat="50.29392" lon="3.44772">
        <ele>24</ele>
        <time>2016-02-28T10:31:51Z</time>
      </trkpt>
      <trkpt lat="50.29404" lon="3.44763">
        <ele>24</ele>
        <time>2016-02-28T10:31:54Z</time>
      </trkpt>
      <trkpt lat="50.29435" lon="3.44745">
        <ele>27</ele>
        <time>2016-02-28T10:32:04Z</time>
      </trkpt>
      <trkpt lat="50.29451" lon="3.44741">
        <ele>28</ele>
        <time>2016-02-28T10:32:09Z</time>
      </trkpt>
      <trkpt lat="50.29459" lon="3.44739">
        <ele>28</ele>
        <time>2016-02-28T10:32:12Z</time>
      </trkpt>
      <trkpt lat="50.2948" lon="3.44736">
        <ele>28</ele>
        <time>2016-02-28T10:32:18Z</time>
      </trkpt>
      <trkpt lat="50.29501" lon="3.44729">
        <ele>28</ele>
        <time>2016-02-28T10:32:24Z</time>
      </trkpt>
      <trkpt lat="50.29521" lon="3.44727">
        <ele>27</ele>
        <time>2016-02-28T10:32:30Z</time>
      </trkpt>
      <trkpt lat="50.29542" lon="3.44722">
        <ele>25</ele>
        <time>2016-02-28T10:32:36Z</time>
      </trkpt>
      <trkpt lat="50.29563" lon="3.44718">
        <ele>25</ele>
        <time>2016-02-28T10:32:42Z</time>
      </trkpt>
      <trkpt lat="50.29584" lon="3.44713">
        <ele>24</ele>
        <time>2016-02-28T10:32:48Z</time>
      </trkpt>
      <trkpt lat="50.29602" lon="3.44712">
        <ele>24</ele>
        <time>2016-02-28T10:32:54Z</time>
      </trkpt>
      <trkpt lat="50.29618" lon="3.44708">
        <ele>22</ele>
        <time>2016-02-28T10:33:00Z</time>
      </trkpt>
      <trkpt lat="50.29637" lon="3.44706">
        <ele>24</ele>
        <time>2016-02-28T10:33:06Z</time>
      </trkpt>
      <trkpt lat="50.29653" lon="3.44707">
        <ele>24</ele>
        <time>2016-02-28T10:33:12Z</time>
      </trkpt>
      <trkpt lat="50.29668" lon="3.44706">
        <ele>24</ele>
        <time>2016-02-28T10:33:18Z</time>
      </trkpt>
      <trkpt lat="50.29686" lon="3.44703">
        <ele>23</ele>
        <time>2016-02-28T10:33:25Z</time>
      </trkpt>
      <trkpt lat="50.29697" lon="3.44703">
        <ele>21</ele>
        <time>2016-02-28T10:33:30Z</time>
      </trkpt>
      <trkpt lat="50.2971" lon="3.44705">
        <ele>21</ele>
        <time>2016-02-28T10:33:36Z</time>
      </trkpt>
      <trkpt lat="50.29724" lon="3.44708">
        <ele>22</ele>
        <time>2016-02-28T10:33:42Z</time>
      </trkpt>
      <trkpt lat="50.29739" lon="3.44713">
        <ele>25</ele>
        <time>2016-02-28T10:33:48Z</time>
      </trkpt>
      <trkpt lat="50.29757" lon="3.44718">
        <ele>26</ele>
        <time>2016-02-28T10:33:54Z</time>
      </trkpt>
      <trkpt lat="50.29776" lon="3.44719">
        <ele>25</ele>
        <time>2016-02-28T10:34:00Z</time>
      </trkpt>
      <trkpt lat="50.2979" lon="3.44723">
        <ele>28</ele>
        <time>2016-02-28T10:34:06Z</time>
      </trkpt>
      <trkpt lat="50.29806" lon="3.44724">
        <ele>29</ele>
        <time>2016-02-28T10:34:12Z</time>
      </trkpt>
      <trkpt lat="50.29824" lon="3.44725">
        <ele>29</ele>
        <time>2016-02-28T10:34:18Z</time>
      </trkpt>
      <trkpt lat="50.29847" lon="3.44725">
        <ele>30</ele>
        <time>2016-02-28T10:34:26Z</time>
      </trkpt>
      <trkpt lat="50.29867" lon="3.44727">
        <ele>31</ele>
        <time>2016-02-28T10:34:34Z</time>
      </trkpt>
      <trkpt lat="50.29871" lon="3.44726">
        <ele>29</ele>
        <time>2016-02-28T10:34:36Z</time>
      </trkpt>
      <trkpt lat="50.29881" lon="3.44729">
        <ele>27</ele>
        <time>2016-02-28T10:34:42Z</time>
      </trkpt>
      <trkpt lat="50.29901" lon="3.44729">
        <ele>29</ele>
        <time>2016-02-28T10:34:50Z</time>
      </trkpt>
      <trkpt lat="50.29918" lon="3.44728">
        <ele>30</ele>
        <time>2016-02-28T10:34:55Z</time>
      </trkpt>
      <trkpt lat="50.29934" lon="3.44731">
        <ele>31</ele>
        <time>2016-02-28T10:35:00Z</time>
      </trkpt>
      <trkpt lat="50.29964" lon="3.44736">
        <ele>29</ele>
        <time>2016-02-28T10:35:10Z</time>
      </trkpt>
      <trkpt lat="50.29969" lon="3.44739">
        <ele>27</ele>
        <time>2016-02-28T10:35:12Z</time>
      </trkpt>
      <trkpt lat="50.29983" lon="3.44759">
        <ele>27</ele>
        <time>2016-02-28T10:35:18Z</time>
      </trkpt>
      <trkpt lat="50.3" lon="3.4476">
        <ele>26</ele>
        <time>2016-02-28T10:35:24Z</time>
      </trkpt>
      <trkpt lat="50.3002" lon="3.44742">
        <ele>28</ele>
        <time>2016-02-28T10:35:31Z</time>
      </trkpt>
      <trkpt lat="50.30034" lon="3.44736">
        <ele>28</ele>
        <time>2016-02-28T10:35:36Z</time>
      </trkpt>
      <trkpt lat="50.30053" lon="3.44739">
        <ele>29</ele>
        <time>2016-02-28T10:35:42Z</time>
      </trkpt>
      <trkpt lat="50.30068" lon="3.44744">
        <ele>31</ele>
        <time>2016-02-28T10:35:48Z</time>
      </trkpt>
      <trkpt lat="50.30097" lon="3.44749">
        <ele>37</ele>
        <time>2016-02-28T10:35:57Z</time>
      </trkpt>
      <trkpt lat="50.30104" lon="3.44749">
        <ele>35</ele>
        <time>2016-02-28T10:36:00Z</time>
      </trkpt>
      <trkpt lat="50.30117" lon="3.4475">
        <ele>35</ele>
        <time>2016-02-28T10:36:06Z</time>
      </trkpt>
      <trkpt lat="50.30131" lon="3.44749">
        <ele>31</ele>
        <time>2016-02-28T10:36:12Z</time>
      </trkpt>
      <trkpt lat="50.30151" lon="3.44744">
        <ele>30</ele>
        <time>2016-02-28T10:36:19Z</time>
      </trkpt>
      <trkpt lat="50.30164" lon="3.44735">
        <ele>29</ele>
        <time>2016-02-28T10:36:24Z</time>
      </trkpt>
      <trkpt lat="50.30187" lon="3.44722">
        <ele>31</ele>
        <time>2016-02-28T10:36:34Z</time>
      </trkpt>
      <trkpt lat="50.30191" lon="3.4472">
        <ele>31</ele>
        <time>2016-02-28T10:36:36Z</time>
      </trkpt>
      <trkpt lat="50.30204" lon="3.44714">
        <ele>34</ele>
        <time>2016-02-28T10:36:42Z</time>
      </trkpt>
      <trkpt lat="50.30217" lon="3.44701">
        <ele>35</ele>
        <time>2016-02-28T10:36:48Z</time>
      </trkpt>
      <trkpt lat="50.30235" lon="3.44688">
        <ele>38</ele>
        <time>2016-02-28T10:36:58Z</time>
      </trkpt>
      <trkpt lat="50.30244" lon="3.44681">
        <ele>35</ele>
        <time>2016-02-28T10:37:02Z</time>
      </trkpt>
      <trkpt lat="50.30252" lon="3.4468">
        <ele>34</ele>
        <time>2016-02-28T10:37:06Z</time>
      </trkpt>
      <trkpt lat="50.30272" lon="3.44669">
        <ele>27</ele>
        <time>2016-02-28T10:37:14Z</time>
      </trkpt>
      <trkpt lat="50.30281" lon="3.44673">
        <ele>23</ele>
        <time>2016-02-28T10:37:19Z</time>
      </trkpt>
      <trkpt lat="50.30293" lon="3.44676">
        <ele>24</ele>
        <time>2016-02-28T10:37:24Z</time>
      </trkpt>
      <trkpt lat="50.30313" lon="3.44679">
        <ele>27</ele>
        <time>2016-02-28T10:37:31Z</time>
      </trkpt>
      <trkpt lat="50.3033" lon="3.44677">
        <ele>28</ele>
        <time>2016-02-28T10:37:36Z</time>
      </trkpt>
      <trkpt lat="50.30347" lon="3.44685">
        <ele>26</ele>
        <time>2016-02-28T10:37:45Z</time>
      </trkpt>
      <trkpt lat="50.30354" lon="3.44692">
        <ele>30</ele>
        <time>2016-02-28T10:37:48Z</time>
      </trkpt>
      <trkpt lat="50.3038" lon="3.44698">
        <ele>29</ele>
        <time>2016-02-28T10:37:58Z</time>
      </trkpt>
      <trkpt lat="50.30384" lon="3.44696">
        <ele>28</ele>
        <time>2016-02-28T10:38:00Z</time>
      </trkpt>
      <trkpt lat="50.30401" lon="3.44687">
        <ele>34</ele>
        <time>2016-02-28T10:38:08Z</time>
      </trkpt>
      <trkpt lat="50.3041" lon="3.44667">
        <ele>33</ele>
        <time>2016-02-28T10:38:13Z</time>
      </trkpt>
      <trkpt lat="50.30419" lon="3.44653">
        <ele>31</ele>
        <time>2016-02-28T10:38:18Z</time>
      </trkpt>
      <trkpt lat="50.30426" lon="3.44632">
        <ele>30</ele>
        <time>2016-02-28T10:38:24Z</time>
      </trkpt>
      <trkpt lat="50.30431" lon="3.44622">
        <ele>31</ele>
        <time>2016-02-28T10:38:30Z</time>
      </trkpt>
      <trkpt lat="50.3043" lon="3.44622">
        <ele>30</ele>
        <time>2016-02-28T10:38:40Z</time>
      </trkpt>
      <trkpt lat="50.3043" lon="3.44622">
        <ele>30</ele>
        <time>2016-02-28T10:38:42Z</time>
      </trkpt>
      <trkpt lat="50.3043" lon="3.44622">
        <ele>30</ele>
        <time>2016-02-28T10:38:48Z</time>
      </trkpt>
      <trkpt lat="50.3043" lon="3.44622">
        <ele>30</ele>
        <time>2016-02-28T10:38:54Z</time>
      </trkpt>
      <trkpt lat="50.30431" lon="3.44624">
        <ele>29</ele>
        <time>2016-02-28T10:39:00Z</time>
      </trkpt>
      <trkpt lat="50.30431" lon="3.44623">
        <ele>29</ele>
        <time>2016-02-28T10:39:06Z</time>
      </trkpt>
      <trkpt lat="50.3043" lon="3.44622">
        <ele>30</ele>
        <time>2016-02-28T10:39:17Z</time>
      </trkpt>
      <trkpt lat="50.3043" lon="3.44622">
        <ele>30</ele>
        <time>2016-02-28T10:39:18Z</time>
      </trkpt>
      <trkpt lat="50.3043" lon="3.44622">
        <ele>30</ele>
        <time>2016-02-28T10:39:24Z</time>
      </trkpt>
      <trkpt lat="50.3043" lon="3.44622">
        <ele>30</ele>
        <time>2016-02-28T10:39:30Z</time>
      </trkpt>
      <trkpt lat="50.3043" lon="3.44622">
        <ele>30</ele>
        <time>2016-02-28T10:39:36Z</time>
      </trkpt>
      <trkpt lat="50.3043" lon="3.44622">
        <ele>30</ele>
        <time>2016-02-28T10:39:42Z</time>
      </trkpt>
      <trkpt lat="50.3043" lon="3.44622">
        <ele>30</ele>
        <time>2016-02-28T10:39:50Z</time>
      </trkpt>
      <trkpt lat="50.3043" lon="3.44622">
        <ele>30</ele>
        <time>2016-02-28T10:39:54Z</time>
      </trkpt>
      <trkpt lat="50.3043" lon="3.44622">
        <ele>30</ele>
        <time>2016-02-28T10:40:00Z</time>
      </trkpt>
      <trkpt lat="50.3043" lon="3.44622">
        <ele>30</ele>
        <time>2016-02-28T10:40:11Z</time>
      </trkpt>
      <trkpt lat="50.3043" lon="3.44622">
        <ele>30</ele>
        <time>2016-02-28T10:40:14Z</time>
      </trkpt>
      <trkpt lat="50.3043" lon="3.44622">
        <ele>30</ele>
        <time>2016-02-28T10:40:21Z</time>
      </trkpt>
      <trkpt lat="50.30431" lon="3.4462">
        <ele>29</ele>
        <time>2016-02-28T10:40:25Z</time>
      </trkpt>
      <trkpt lat="50.30436" lon="3.446">
        <ele>32</ele>
        <time>2016-02-28T10:40:30Z</time>
      </trkpt>
      <trkpt lat="50.30448" lon="3.44569">
        <ele>28</ele>
        <time>2016-02-28T10:40:39Z</time>
      </trkpt>
      <trkpt lat="50.30452" lon="3.44559">
        <ele>27</ele>
        <time>2016-02-28T10:40:42Z</time>
      </trkpt>
      <trkpt lat="50.30467" lon="3.44526">
        <ele>29</ele>
        <time>2016-02-28T10:40:51Z</time>
      </trkpt>
      <trkpt lat="50.30476" lon="3.44492">
        <ele>29</ele>
        <time>2016-02-28T10:40:58Z</time>
      </trkpt>
      <trkpt lat="50.30479" lon="3.44484">
        <ele>28</ele>
        <time>2016-02-28T10:41:00Z</time>
      </trkpt>
      <trkpt lat="50.30488" lon="3.44462">
        <ele>29</ele>
        <time>2016-02-28T10:41:06Z</time>
      </trkpt>
      <trkpt lat="50.30501" lon="3.44434">
        <ele>24</ele>
        <time>2016-02-28T10:41:13Z</time>
      </trkpt>
      <trkpt lat="50.30508" lon="3.44416">
        <ele>24</ele>
        <time>2016-02-28T10:41:18Z</time>
      </trkpt>
      <trkpt lat="50.3053" lon="3.44378">
        <ele>22</ele>
        <time>2016-02-28T10:41:28Z</time>
      </trkpt>
      <trkpt lat="50.30538" lon="3.44376">
        <ele>21</ele>
        <time>2016-02-28T10:41:30Z</time>
      </trkpt>
      <trkpt lat="50.30559" lon="3.44369">
        <ele>20</ele>
        <time>2016-02-28T10:41:36Z</time>
      </trkpt>
      <trkpt lat="50.30581" lon="3.44367">
        <ele>19</ele>
        <time>2016-02-28T10:41:42Z</time>
      </trkpt>
      <trkpt lat="50.30602" lon="3.44367">
        <ele>21</ele>
        <time>2016-02-28T10:41:48Z</time>
      </trkpt>
      <trkpt lat="50.30623" lon="3.44367">
        <ele>22</ele>
        <time>2016-02-28T10:41:54Z</time>
      </trkpt>
      <trkpt lat="50.30661" lon="3.44342">
        <ele>23</ele>
        <time>2016-02-28T10:42:05Z</time>
      </trkpt>
      <trkpt lat="50.30664" lon="3.44335">
        <ele>23</ele>
        <time>2016-02-28T10:42:06Z</time>
      </trkpt>
      <trkpt lat="50.30678" lon="3.44294">
        <ele>23</ele>
        <time>2016-02-28T10:42:13Z</time>
      </trkpt>
      <trkpt lat="50.30685" lon="3.4426">
        <ele>21</ele>
        <time>2016-02-28T10:42:18Z</time>
      </trkpt>
      <trkpt lat="50.30696" lon="3.4422">
        <ele>21</ele>
        <time>2016-02-28T10:42:24Z</time>
      </trkpt>
      <trkpt lat="50.3071" lon="3.44171">
        <ele>21</ele>
        <time>2016-02-28T10:42:32Z</time>
      </trkpt>
      <trkpt lat="50.30717" lon="3.44144">
        <ele>22</ele>
        <time>2016-02-28T10:42:36Z</time>
      </trkpt>
      <trkpt lat="50.30729" lon="3.44108">
        <ele>21</ele>
        <time>2016-02-28T10:42:42Z</time>
      </trkpt>
      <trkpt lat="50.30741" lon="3.44077">
        <ele>17</ele>
        <time>2016-02-28T10:42:48Z</time>
      </trkpt>
      <trkpt lat="50.30753" lon="3.44041">
        <ele>17</ele>
        <time>2016-02-28T10:42:54Z</time>
      </trkpt>
      <trkpt lat="50.30768" lon="3.43996">
        <ele>17</ele>
        <time>2016-02-28T10:43:01Z</time>
      </trkpt>
      <trkpt lat="50.30781" lon="3.43965">
        <ele>19</ele>
        <time>2016-02-28T10:43:06Z</time>
      </trkpt>
      <trkpt lat="50.30794" lon="3.43937">
        <ele>19</ele>
        <time>2016-02-28T10:43:12Z</time>
      </trkpt>
      <trkpt lat="50.30818" lon="3.43884">
        <ele>18</ele>
        <time>2016-02-28T10:43:22Z</time>
      </trkpt>
      <trkpt lat="50.30822" lon="3.4388">
        <ele>18</ele>
        <time>2016-02-28T10:43:24Z</time>
      </trkpt>
      <trkpt lat="50.30845" lon="3.43835">
        <ele>18</ele>
        <time>2016-02-28T10:43:33Z</time>
      </trkpt>
      <trkpt lat="50.30855" lon="3.43816">
        <ele>17</ele>
        <time>2016-02-28T10:43:37Z</time>
      </trkpt>
      <trkpt lat="50.30869" lon="3.4379">
        <ele>18</ele>
        <time>2016-02-28T10:43:43Z</time>
      </trkpt>
      <trkpt lat="50.30895" lon="3.43743">
        <ele>18</ele>
        <time>2016-02-28T10:43:53Z</time>
      </trkpt>
      <trkpt lat="50.30909" lon="3.43721">
        <ele>17</ele>
        <time>2016-02-28T10:43:58Z</time>
      </trkpt>
      <trkpt lat="50.30914" lon="3.43713">
        <ele>19</ele>
        <time>2016-02-28T10:44:00Z</time>
      </trkpt>
      <trkpt lat="50.30935" lon="3.43685">
        <ele>18</ele>
        <time>2016-02-28T10:44:07Z</time>
      </trkpt>
      <trkpt lat="50.30952" lon="3.43658">
        <ele>17</ele>
        <time>2016-02-28T10:44:13Z</time>
      </trkpt>
      <trkpt lat="50.30968" lon="3.43635">
        <ele>18</ele>
        <time>2016-02-28T10:44:19Z</time>
      </trkpt>
      <trkpt lat="50.30982" lon="3.43614">
        <ele>18</ele>
        <time>2016-02-28T10:44:24Z</time>
      </trkpt>
      <trkpt lat="50.31004" lon="3.43574">
        <ele>18</ele>
        <time>2016-02-28T10:44:33Z</time>
      </trkpt>
      <trkpt lat="50.31011" lon="3.43559">
        <ele>18</ele>
        <time>2016-02-28T10:44:36Z</time>
      </trkpt>
      <trkpt lat="50.31026" lon="3.43533">
        <ele>18</ele>
        <time>2016-02-28T10:44:42Z</time>
      </trkpt>
      <trkpt lat="50.31039" lon="3.43506">
        <ele>16</ele>
        <time>2016-02-28T10:44:48Z</time>
      </trkpt>
      <trkpt lat="50.31053" lon="3.43479">
        <ele>16</ele>
        <time>2016-02-28T10:44:54Z</time>
      </trkpt>
      <trkpt lat="50.31067" lon="3.43451">
        <ele>16</ele>
        <time>2016-02-28T10:45:00Z</time>
      </trkpt>
      <trkpt lat="50.31081" lon="3.43422">
        <ele>16</ele>
        <time>2016-02-28T10:45:06Z</time>
      </trkpt>
      <trkpt lat="50.31096" lon="3.43392">
        <ele>17</ele>
        <time>2016-02-28T10:45:12Z</time>
      </trkpt>
      <trkpt lat="50.31111" lon="3.43361">
        <ele>18</ele>
        <time>2016-02-28T10:45:18Z</time>
      </trkpt>
      <trkpt lat="50.31129" lon="3.43328">
        <ele>13</ele>
        <time>2016-02-28T10:45:25Z</time>
      </trkpt>
      <trkpt lat="50.31141" lon="3.43297">
        <ele>14</ele>
        <time>2016-02-28T10:45:31Z</time>
      </trkpt>
      <trkpt lat="50.31154" lon="3.43275">
        <ele>12</ele>
        <time>2016-02-28T10:45:36Z</time>
      </trkpt>
      <trkpt lat="50.31171" lon="3.43246">
        <ele>12</ele>
        <time>2016-02-28T10:45:43Z</time>
      </trkpt>
      <trkpt lat="50.31177" lon="3.43219">
        <ele>14</ele>
        <time>2016-02-28T10:45:48Z</time>
      </trkpt>
      <trkpt lat="50.31193" lon="3.43177">
        <ele>16</ele>
        <time>2016-02-28T10:45:55Z</time>
      </trkpt>
      <trkpt lat="50.3121" lon="3.43143">
        <ele>17</ele>
        <time>2016-02-28T10:46:02Z</time>
      </trkpt>
      <trkpt lat="50.3122" lon="3.43121">
        <ele>18</ele>
        <time>2016-02-28T10:46:06Z</time>
      </trkpt>
      <trkpt lat="50.31234" lon="3.43092">
        <ele>21</ele>
        <time>2016-02-28T10:46:12Z</time>
      </trkpt>
      <trkpt lat="50.31248" lon="3.43062">
        <ele>23</ele>
        <time>2016-02-28T10:46:18Z</time>
      </trkpt>
      <trkpt lat="50.31264" lon="3.43022">
        <ele>25</ele>
        <time>2016-02-28T10:46:25Z</time>
      </trkpt>
      <trkpt lat="50.31281" lon="3.42988">
        <ele>24</ele>
        <time>2016-02-28T10:46:31Z</time>
      </trkpt>
      <trkpt lat="50.31296" lon="3.42963">
        <ele>24</ele>
        <time>2016-02-28T10:46:36Z</time>
      </trkpt>
      <trkpt lat="50.31311" lon="3.42934">
        <ele>26</ele>
        <time>2016-02-28T10:46:42Z</time>
      </trkpt>
      <trkpt lat="50.31338" lon="3.42892">
        <ele>24</ele>
        <time>2016-02-28T10:46:52Z</time>
      </trkpt>
      <trkpt lat="50.31346" lon="3.4288">
        <ele>24</ele>
        <time>2016-02-28T10:46:55Z</time>
      </trkpt>
      <trkpt lat="50.3136" lon="3.42859">
        <ele>25</ele>
        <time>2016-02-28T10:47:00Z</time>
      </trkpt>
      <trkpt lat="50.31385" lon="3.4283">
        <ele>25</ele>
        <time>2016-02-28T10:47:08Z</time>
      </trkpt>
      <trkpt lat="50.31397" lon="3.42817">
        <ele>25</ele>
        <time>2016-02-28T10:47:12Z</time>
      </trkpt>
      <trkpt lat="50.31414" lon="3.42802">
        <ele>23</ele>
        <time>2016-02-28T10:47:18Z</time>
      </trkpt>
      <trkpt lat="50.31431" lon="3.42784">
        <ele>22</ele>
        <time>2016-02-28T10:47:25Z</time>
      </trkpt>
      <trkpt lat="50.3145" lon="3.42764">
        <ele>24</ele>
        <time>2016-02-28T10:47:34Z</time>
      </trkpt>
      <trkpt lat="50.31455" lon="3.42758">
        <ele>24</ele>
        <time>2016-02-28T10:47:36Z</time>
      </trkpt>
      <trkpt lat="50.3147" lon="3.42745">
        <ele>21</ele>
        <time>2016-02-28T10:47:42Z</time>
      </trkpt>
      <trkpt lat="50.31484" lon="3.4273">
        <ele>20</ele>
        <time>2016-02-28T10:47:48Z</time>
      </trkpt>
      <trkpt lat="50.31503" lon="3.4271">
        <ele>20</ele>
        <time>2016-02-28T10:47:56Z</time>
      </trkpt>
      <trkpt lat="50.31514" lon="3.42697">
        <ele>19</ele>
        <time>2016-02-28T10:48:01Z</time>
      </trkpt>
      <trkpt lat="50.31528" lon="3.42682">
        <ele>18</ele>
        <time>2016-02-28T10:48:07Z</time>
      </trkpt>
      <trkpt lat="50.31538" lon="3.42665">
        <ele>19</ele>
        <time>2016-02-28T10:48:12Z</time>
      </trkpt>
      <trkpt lat="50.31562" lon="3.4264">
        <ele>18</ele>
        <time>2016-02-28T10:48:23Z</time>
      </trkpt>
      <trkpt lat="50.31564" lon="3.42638">
        <ele>18</ele>
        <time>2016-02-28T10:48:24Z</time>
      </trkpt>
      <trkpt lat="50.31576" lon="3.42624">
        <ele>17</ele>
        <time>2016-02-28T10:48:30Z</time>
      </trkpt>
      <trkpt lat="50.31589" lon="3.42607">
        <ele>18</ele>
        <time>2016-02-28T10:48:36Z</time>
      </trkpt>
      <trkpt lat="50.31601" lon="3.4259">
        <ele>19</ele>
        <time>2016-02-28T10:48:42Z</time>
      </trkpt>
      <trkpt lat="50.31616" lon="3.42575">
        <ele>20</ele>
        <time>2016-02-28T10:48:48Z</time>
      </trkpt>
      <trkpt lat="50.31628" lon="3.42558">
        <ele>19</ele>
        <time>2016-02-28T10:48:55Z</time>
      </trkpt>
      <trkpt lat="50.31638" lon="3.42545">
        <ele>19</ele>
        <time>2016-02-28T10:49:00Z</time>
      </trkpt>
      <trkpt lat="50.31649" lon="3.42533">
        <ele>17</ele>
        <time>2016-02-28T10:49:06Z</time>
      </trkpt>
      <trkpt lat="50.3166" lon="3.42515">
        <ele>17</ele>
        <time>2016-02-28T10:49:12Z</time>
      </trkpt>
      <trkpt lat="50.31677" lon="3.42474">
        <ele>19</ele>
        <time>2016-02-28T10:49:23Z</time>
      </trkpt>
      <trkpt lat="50.31683" lon="3.42459">
        <ele>20</ele>
        <time>2016-02-28T10:49:27Z</time>
      </trkpt>
      <trkpt lat="50.31686" lon="3.42444">
        <ele>22</ele>
        <time>2016-02-28T10:49:31Z</time>
      </trkpt>
      <trkpt lat="50.3169" lon="3.42437">
        <ele>22</ele>
        <time>2016-02-28T10:49:37Z</time>
      </trkpt>
      <trkpt lat="50.3169" lon="3.42431">
        <ele>24</ele>
        <time>2016-02-28T10:49:44Z</time>
      </trkpt>
      <trkpt lat="50.31689" lon="3.42426">
        <ele>24</ele>
        <time>2016-02-28T10:49:48Z</time>
      </trkpt>
      <trkpt lat="50.31687" lon="3.42421">
        <ele>26</ele>
        <time>2016-02-28T10:49:54Z</time>
      </trkpt>
      <trkpt lat="50.31688" lon="3.42413">
        <ele>25</ele>
        <time>2016-02-28T10:50:00Z</time>
      </trkpt>
      <trkpt lat="50.31683" lon="3.42408">
        <ele>29</ele>
        <time>2016-02-28T10:50:07Z</time>
      </trkpt>
      <trkpt lat="50.31681" lon="3.42405">
        <ele>31</ele>
        <time>2016-02-28T10:50:12Z</time>
      </trkpt>
      <trkpt lat="50.31678" lon="3.42403">
        <ele>36</ele>
        <time>2016-02-28T10:50:23Z</time>
      </trkpt>
      <trkpt lat="50.31678" lon="3.42404">
        <ele>36</ele>
        <time>2016-02-28T10:50:27Z</time>
      </trkpt>
    </trkseg>
  </trk>
</gpx>